<?xml version='1.0' encoding='UTF-8'?>
<gpx version="1.1" creator="https://www.komoot.de" xmlns="http://www.topografix.com/GPX/1/1" xmlns:xsi="http://www.w3.org/2001/XMLSchema-instance" xsi:schemaLocation="http://www.topografix.com/GPX/1/1 http://www.topografix.com/GPX/1/1/gpx.xsd">
  <metadata>
    <name>Wanderung</name>
    <author>
      <link href="https://www.komoot.de">
        <text>komoot</text>
        <type>text/html</type>
      </link>
    </author>
  </metadata>
  <trk>
    <name>Wanderung</name>
    <trkseg>
      <trkpt lat="48.429657" lon="8.018410">
        <ele>241.806163</ele>
        <time>2021-12-23T11:48:56.022Z</time>
      </trkpt>
      <trkpt lat="48.429642" lon="8.018558">
        <ele>241.806163</ele>
        <time>2021-12-23T11:49:07.013Z</time>
      </trkpt>
      <trkpt lat="48.429733" lon="8.018603">
        <ele>241.806163</ele>
        <time>2021-12-23T11:49:23.045Z</time>
      </trkpt>
      <trkpt lat="48.429782" lon="8.018727">
        <ele>241.806163</ele>
        <time>2021-12-23T11:49:37.016Z</time>
      </trkpt>
      <trkpt lat="48.429696" lon="8.018678">
        <ele>241.806163</ele>
        <time>2021-12-23T11:50:38.019Z</time>
      </trkpt>
      <trkpt lat="48.429616" lon="8.018759">
        <ele>241.806163</ele>
        <time>2021-12-23T11:50:50.017Z</time>
      </trkpt>
      <trkpt lat="48.429784" lon="8.018821">
        <ele>241.806163</ele>
        <time>2021-12-23T11:53:10.022Z</time>
      </trkpt>
      <trkpt lat="48.429778" lon="8.018959">
        <ele>241.806163</ele>
        <time>2021-12-23T11:53:17.019Z</time>
      </trkpt>
      <trkpt lat="48.429787" lon="8.019119">
        <ele>241.806163</ele>
        <time>2021-12-23T11:53:24.052Z</time>
      </trkpt>
      <trkpt lat="48.429799" lon="8.019265">
        <ele>241.932978</ele>
        <time>2021-12-23T11:53:32.016Z</time>
      </trkpt>
      <trkpt lat="48.429813" lon="8.019410">
        <ele>242.185794</ele>
        <time>2021-12-23T11:53:38.025Z</time>
      </trkpt>
      <trkpt lat="48.429835" lon="8.019542">
        <ele>242.420620</ele>
        <time>2021-12-23T11:53:45.020Z</time>
      </trkpt>
      <trkpt lat="48.429862" lon="8.019673">
        <ele>242.657298</ele>
        <time>2021-12-23T11:53:52.025Z</time>
      </trkpt>
      <trkpt lat="48.429872" lon="8.019807">
        <ele>242.889958</ele>
        <time>2021-12-23T11:53:58.020Z</time>
      </trkpt>
      <trkpt lat="48.429883" lon="8.019953">
        <ele>243.143483</ele>
        <time>2021-12-23T11:54:05.022Z</time>
      </trkpt>
      <trkpt lat="48.429897" lon="8.020098">
        <ele>243.396298</ele>
        <time>2021-12-23T11:54:13.020Z</time>
      </trkpt>
      <trkpt lat="48.430017" lon="8.020336">
        <ele>243.912042</ele>
        <time>2021-12-23T11:55:17.025Z</time>
      </trkpt>
      <trkpt lat="48.430111" lon="8.020387">
        <ele>244.171826</ele>
        <time>2021-12-23T11:55:25.023Z</time>
      </trkpt>
      <trkpt lat="48.430176" lon="8.020503">
        <ele>244.433790</ele>
        <time>2021-12-23T11:55:32.021Z</time>
      </trkpt>
      <trkpt lat="48.430326" lon="8.020745">
        <ele>245.005169</ele>
        <time>2021-12-23T11:57:28.027Z</time>
      </trkpt>
      <trkpt lat="48.430427" lon="8.020765">
        <ele>245.270055</ele>
        <time>2021-12-23T11:57:32.018Z</time>
      </trkpt>
      <trkpt lat="48.430518" lon="8.020747">
        <ele>245.508711</ele>
        <time>2021-12-23T11:57:39.021Z</time>
      </trkpt>
      <trkpt lat="48.430618" lon="8.020795">
        <ele>245.781609</ele>
        <time>2021-12-23T11:57:48.022Z</time>
      </trkpt>
      <trkpt lat="48.430710" lon="8.020797">
        <ele>246.020861</ele>
        <time>2021-12-23T11:57:54.032Z</time>
      </trkpt>
      <trkpt lat="48.430793" lon="8.020742">
        <ele>246.256626</ele>
        <time>2021-12-23T11:58:00.017Z</time>
      </trkpt>
      <trkpt lat="48.430883" lon="8.020771">
        <ele>246.460863</ele>
        <time>2021-12-23T11:58:08.013Z</time>
      </trkpt>
      <trkpt lat="48.430980" lon="8.020762">
        <ele>246.020246</ele>
        <time>2021-12-23T11:58:26.020Z</time>
      </trkpt>
      <trkpt lat="48.431057" lon="8.020854">
        <ele>245.574742</ele>
        <time>2021-12-23T11:58:40.013Z</time>
      </trkpt>
      <trkpt lat="48.431116" lon="8.020963">
        <ele>245.151567</ele>
        <time>2021-12-23T11:58:54.020Z</time>
      </trkpt>
      <trkpt lat="48.431196" lon="8.021033">
        <ele>244.732160</ele>
        <time>2021-12-23T11:59:03.034Z</time>
      </trkpt>
      <trkpt lat="48.431269" lon="8.021114">
        <ele>244.321163</ele>
        <time>2021-12-23T11:59:11.022Z</time>
      </trkpt>
      <trkpt lat="48.431338" lon="8.021213">
        <ele>243.889233</ele>
        <time>2021-12-23T11:59:20.018Z</time>
      </trkpt>
      <trkpt lat="48.431405" lon="8.021315">
        <ele>243.457458</ele>
        <time>2021-12-23T11:59:28.019Z</time>
      </trkpt>
      <trkpt lat="48.431446" lon="8.021439">
        <ele>243.040680</ele>
        <time>2021-12-23T11:59:37.018Z</time>
      </trkpt>
      <trkpt lat="48.431505" lon="8.021542">
        <ele>242.631334</ele>
        <time>2021-12-23T11:59:47.020Z</time>
      </trkpt>
      <trkpt lat="48.431589" lon="8.021619">
        <ele>242.185578</ele>
        <time>2021-12-23T11:59:54.019Z</time>
      </trkpt>
      <trkpt lat="48.431670" lon="8.021691">
        <ele>241.759221</ele>
        <time>2021-12-23T12:00:00.019Z</time>
      </trkpt>
      <trkpt lat="48.431716" lon="8.021822">
        <ele>241.313353</ele>
        <time>2021-12-23T12:00:10.023Z</time>
      </trkpt>
      <trkpt lat="48.431744" lon="8.021955">
        <ele>240.893597</ele>
        <time>2021-12-23T12:00:18.018Z</time>
      </trkpt>
      <trkpt lat="48.431826" lon="8.022052">
        <ele>240.420981</ele>
        <time>2021-12-23T12:00:24.017Z</time>
      </trkpt>
      <trkpt lat="48.431890" lon="8.022151">
        <ele>240.005177</ele>
        <time>2021-12-23T12:00:32.026Z</time>
      </trkpt>
      <trkpt lat="48.431900" lon="8.022298">
        <ele>239.560645</ele>
        <time>2021-12-23T12:00:45.020Z</time>
      </trkpt>
      <trkpt lat="48.431972" lon="8.022383">
        <ele>239.145983</ele>
        <time>2021-12-23T12:00:53.018Z</time>
      </trkpt>
      <trkpt lat="48.432020" lon="8.022498">
        <ele>238.737275</ele>
        <time>2021-12-23T12:01:01.021Z</time>
      </trkpt>
      <trkpt lat="48.432062" lon="8.022624">
        <ele>238.363682</ele>
        <time>2021-12-23T12:01:13.015Z</time>
      </trkpt>
      <trkpt lat="48.432112" lon="8.022755">
        <ele>239.415147</ele>
        <time>2021-12-23T12:01:21.016Z</time>
      </trkpt>
      <trkpt lat="48.432190" lon="8.022823">
        <ele>240.360019</ele>
        <time>2021-12-23T12:01:25.014Z</time>
      </trkpt>
      <trkpt lat="48.432242" lon="8.022938">
        <ele>241.328254</ele>
        <time>2021-12-23T12:01:34.017Z</time>
      </trkpt>
      <trkpt lat="48.432340" lon="8.022949">
        <ele>242.358714</ele>
        <time>2021-12-23T12:01:48.014Z</time>
      </trkpt>
      <trkpt lat="48.432433" lon="8.022973">
        <ele>243.348091</ele>
        <time>2021-12-23T12:02:01.016Z</time>
      </trkpt>
      <trkpt lat="48.432249" lon="8.023049">
        <ele>245.348631</ele>
        <time>2021-12-23T12:02:55.027Z</time>
      </trkpt>
      <trkpt lat="48.432150" lon="8.022979">
        <ele>246.495296</ele>
        <time>2021-12-23T12:03:07.031Z</time>
      </trkpt>
      <trkpt lat="48.432113" lon="8.022852">
        <ele>247.460316</ele>
        <time>2021-12-23T12:03:17.016Z</time>
      </trkpt>
      <trkpt lat="48.432036" lon="8.022776">
        <ele>248.425461</ele>
        <time>2021-12-23T12:03:24.016Z</time>
      </trkpt>
      <trkpt lat="48.431931" lon="8.022759">
        <ele>249.532811</ele>
        <time>2021-12-23T12:03:34.022Z</time>
      </trkpt>
      <trkpt lat="48.431831" lon="8.022706">
        <ele>250.644344</ele>
        <time>2021-12-23T12:03:39.017Z</time>
      </trkpt>
      <trkpt lat="48.431722" lon="8.022710">
        <ele>251.787640</ele>
        <time>2021-12-23T12:03:47.015Z</time>
      </trkpt>
      <trkpt lat="48.431631" lon="8.022676">
        <ele>252.770738</ele>
        <time>2021-12-23T12:04:01.019Z</time>
      </trkpt>
      <trkpt lat="48.431576" lon="8.022547">
        <ele>253.837578</ele>
        <time>2021-12-23T12:04:08.018Z</time>
      </trkpt>
      <trkpt lat="48.431493" lon="8.022485">
        <ele>254.808940</ele>
        <time>2021-12-23T12:04:13.030Z</time>
      </trkpt>
      <trkpt lat="48.431446" lon="8.022358">
        <ele>255.820693</ele>
        <time>2021-12-23T12:04:24.028Z</time>
      </trkpt>
      <trkpt lat="48.431377" lon="8.022270">
        <ele>256.768508</ele>
        <time>2021-12-23T12:04:36.013Z</time>
      </trkpt>
      <trkpt lat="48.431301" lon="8.022183">
        <ele>258.097199</ele>
        <time>2021-12-23T12:04:45.024Z</time>
      </trkpt>
      <trkpt lat="48.431210" lon="8.022130">
        <ele>259.698035</ele>
        <time>2021-12-23T12:04:59.017Z</time>
      </trkpt>
      <trkpt lat="48.431135" lon="8.022030">
        <ele>261.341194</ele>
        <time>2021-12-23T12:05:11.018Z</time>
      </trkpt>
      <trkpt lat="48.431048" lon="8.021985">
        <ele>262.850509</ele>
        <time>2021-12-23T12:05:41.023Z</time>
      </trkpt>
      <trkpt lat="48.431123" lon="8.022066">
        <ele>264.364547</ele>
        <time>2021-12-23T12:06:06.018Z</time>
      </trkpt>
      <trkpt lat="48.431144" lon="8.022203">
        <ele>265.895444</ele>
        <time>2021-12-23T12:06:17.023Z</time>
      </trkpt>
      <trkpt lat="48.431148" lon="8.022339">
        <ele>267.377622</ele>
        <time>2021-12-23T12:06:22.018Z</time>
      </trkpt>
      <trkpt lat="48.431206" lon="8.022459">
        <ele>268.994027</ele>
        <time>2021-12-23T12:06:30.024Z</time>
      </trkpt>
      <trkpt lat="48.431288" lon="8.022524">
        <ele>270.514324</ele>
        <time>2021-12-23T12:06:38.025Z</time>
      </trkpt>
      <trkpt lat="48.431324" lon="8.022671">
        <ele>272.220343</ele>
        <time>2021-12-23T12:06:44.018Z</time>
      </trkpt>
      <trkpt lat="48.431362" lon="8.022807">
        <ele>273.826995</ele>
        <time>2021-12-23T12:06:51.020Z</time>
      </trkpt>
      <trkpt lat="48.431428" lon="8.022917">
        <ele>275.441680</ele>
        <time>2021-12-23T12:06:58.016Z</time>
      </trkpt>
      <trkpt lat="48.431475" lon="8.023033">
        <ele>276.921497</ele>
        <time>2021-12-23T12:07:06.023Z</time>
      </trkpt>
      <trkpt lat="48.431547" lon="8.023138">
        <ele>278.565491</ele>
        <time>2021-12-23T12:07:12.022Z</time>
      </trkpt>
      <trkpt lat="48.431585" lon="8.023274">
        <ele>280.172137</ele>
        <time>2021-12-23T12:07:19.024Z</time>
      </trkpt>
      <trkpt lat="48.431624" lon="8.023399">
        <ele>281.676036</ele>
        <time>2021-12-23T12:07:26.022Z</time>
      </trkpt>
      <trkpt lat="48.431648" lon="8.023541">
        <ele>283.271440</ele>
        <time>2021-12-23T12:07:33.018Z</time>
      </trkpt>
      <trkpt lat="48.431701" lon="8.023657">
        <ele>284.804867</ele>
        <time>2021-12-23T12:07:40.029Z</time>
      </trkpt>
      <trkpt lat="48.431739" lon="8.023788">
        <ele>286.361481</ele>
        <time>2021-12-23T12:07:49.021Z</time>
      </trkpt>
      <trkpt lat="48.431802" lon="8.023891">
        <ele>287.698042</ele>
        <time>2021-12-23T12:08:00.025Z</time>
      </trkpt>
      <trkpt lat="48.431854" lon="8.024044">
        <ele>289.271487</ele>
        <time>2021-12-23T12:08:52.021Z</time>
      </trkpt>
      <trkpt lat="48.431914" lon="8.024158">
        <ele>290.603347</ele>
        <time>2021-12-23T12:09:03.023Z</time>
      </trkpt>
      <trkpt lat="48.431982" lon="8.024249">
        <ele>291.857820</ele>
        <time>2021-12-23T12:09:10.025Z</time>
      </trkpt>
      <trkpt lat="48.432070" lon="8.024303">
        <ele>293.168532</ele>
        <time>2021-12-23T12:09:17.024Z</time>
      </trkpt>
      <trkpt lat="48.432155" lon="8.024378">
        <ele>294.527263</ele>
        <time>2021-12-23T12:09:26.025Z</time>
      </trkpt>
      <trkpt lat="48.432240" lon="8.024448">
        <ele>295.863456</ele>
        <time>2021-12-23T12:09:35.018Z</time>
      </trkpt>
      <trkpt lat="48.432325" lon="8.024509">
        <ele>297.162163</ele>
        <time>2021-12-23T12:09:43.023Z</time>
      </trkpt>
      <trkpt lat="48.432408" lon="8.024572">
        <ele>298.444143</ele>
        <time>2021-12-23T12:09:49.027Z</time>
      </trkpt>
      <trkpt lat="48.432490" lon="8.024643">
        <ele>299.748704</ele>
        <time>2021-12-23T12:10:00.022Z</time>
      </trkpt>
      <trkpt lat="48.432552" lon="8.024751">
        <ele>301.055864</ele>
        <time>2021-12-23T12:10:10.021Z</time>
      </trkpt>
      <trkpt lat="48.432643" lon="8.024761">
        <ele>302.314529</ele>
        <time>2021-12-23T12:10:35.056Z</time>
      </trkpt>
      <trkpt lat="48.432711" lon="8.024854">
        <ele>303.581223</ele>
        <time>2021-12-23T12:11:24.018Z</time>
      </trkpt>
      <trkpt lat="48.432804" lon="8.024913">
        <ele>304.973168</ele>
        <time>2021-12-23T12:11:33.025Z</time>
      </trkpt>
      <trkpt lat="48.432895" lon="8.024960">
        <ele>306.300163</ele>
        <time>2021-12-23T12:11:41.027Z</time>
      </trkpt>
      <trkpt lat="48.432979" lon="8.025014">
        <ele>307.559938</ele>
        <time>2021-12-23T12:11:49.023Z</time>
      </trkpt>
      <trkpt lat="48.433056" lon="8.025085">
        <ele>308.805162</ele>
        <time>2021-12-23T12:11:58.020Z</time>
      </trkpt>
      <trkpt lat="48.433139" lon="8.025139">
        <ele>310.052259</ele>
        <time>2021-12-23T12:12:21.027Z</time>
      </trkpt>
      <trkpt lat="48.433328" lon="8.025279">
        <ele>312.014171</ele>
        <time>2021-12-23T12:13:42.028Z</time>
      </trkpt>
      <trkpt lat="48.433404" lon="8.025364">
        <ele>312.466228</ele>
        <time>2021-12-23T12:13:51.019Z</time>
      </trkpt>
      <trkpt lat="48.433486" lon="8.025448">
        <ele>312.939819</ele>
        <time>2021-12-23T12:13:58.024Z</time>
      </trkpt>
      <trkpt lat="48.433576" lon="8.025501">
        <ele>313.401365</ele>
        <time>2021-12-23T12:14:06.026Z</time>
      </trkpt>
      <trkpt lat="48.433670" lon="8.025546">
        <ele>313.872474</ele>
        <time>2021-12-23T12:14:14.026Z</time>
      </trkpt>
      <trkpt lat="48.433750" lon="8.025614">
        <ele>314.311185</ele>
        <time>2021-12-23T12:14:22.018Z</time>
      </trkpt>
      <trkpt lat="48.433831" lon="8.025675">
        <ele>314.743702</ele>
        <time>2021-12-23T12:14:30.026Z</time>
      </trkpt>
      <trkpt lat="48.433912" lon="8.025761">
        <ele>315.216970</ele>
        <time>2021-12-23T12:14:39.025Z</time>
      </trkpt>
      <trkpt lat="48.433999" lon="8.025828">
        <ele>315.683643</ele>
        <time>2021-12-23T12:14:47.029Z</time>
      </trkpt>
      <trkpt lat="48.434076" lon="8.025918">
        <ele>316.149081</ele>
        <time>2021-12-23T12:14:55.024Z</time>
      </trkpt>
      <trkpt lat="48.434167" lon="8.025981">
        <ele>316.627417</ele>
        <time>2021-12-23T12:15:04.021Z</time>
      </trkpt>
      <trkpt lat="48.434258" lon="8.026037">
        <ele>317.096926</ele>
        <time>2021-12-23T12:15:12.025Z</time>
      </trkpt>
      <trkpt lat="48.434355" lon="8.026047">
        <ele>317.561343</ele>
        <time>2021-12-23T12:15:18.031Z</time>
      </trkpt>
      <trkpt lat="48.434455" lon="8.026075">
        <ele>318.047179</ele>
        <time>2021-12-23T12:15:27.023Z</time>
      </trkpt>
      <trkpt lat="48.434548" lon="8.026127">
        <ele>318.520989</ele>
        <time>2021-12-23T12:15:34.028Z</time>
      </trkpt>
      <trkpt lat="48.434637" lon="8.026186">
        <ele>318.985412</ele>
        <time>2021-12-23T12:15:42.022Z</time>
      </trkpt>
      <trkpt lat="48.434728" lon="8.026194">
        <ele>319.420825</ele>
        <time>2021-12-23T12:15:50.028Z</time>
      </trkpt>
      <trkpt lat="48.434825" lon="8.026242">
        <ele>319.908491</ele>
        <time>2021-12-23T12:15:58.022Z</time>
      </trkpt>
      <trkpt lat="48.434917" lon="8.026313">
        <ele>320.754202</ele>
        <time>2021-12-23T12:16:07.028Z</time>
      </trkpt>
      <trkpt lat="48.435016" lon="8.026375">
        <ele>321.874973</ele>
        <time>2021-12-23T12:16:14.025Z</time>
      </trkpt>
      <trkpt lat="48.435108" lon="8.026437">
        <ele>322.928539</ele>
        <time>2021-12-23T12:16:20.024Z</time>
      </trkpt>
      <trkpt lat="48.435200" lon="8.026486">
        <ele>323.948626</ele>
        <time>2021-12-23T12:16:28.019Z</time>
      </trkpt>
      <trkpt lat="48.435289" lon="8.026538">
        <ele>324.946528</ele>
        <time>2021-12-23T12:16:34.023Z</time>
      </trkpt>
      <trkpt lat="48.435374" lon="8.026588">
        <ele>325.900427</ele>
        <time>2021-12-23T12:16:40.023Z</time>
      </trkpt>
      <trkpt lat="48.435438" lon="8.026707">
        <ele>326.962947</ele>
        <time>2021-12-23T12:17:00.019Z</time>
      </trkpt>
      <trkpt lat="48.435517" lon="8.026783">
        <ele>327.942735</ele>
        <time>2021-12-23T12:17:08.024Z</time>
      </trkpt>
      <trkpt lat="48.435561" lon="8.026913">
        <ele>328.954980</ele>
        <time>2021-12-23T12:17:15.025Z</time>
      </trkpt>
      <trkpt lat="48.435630" lon="8.027011">
        <ele>329.946136</ele>
        <time>2021-12-23T12:17:25.026Z</time>
      </trkpt>
      <trkpt lat="48.435715" lon="8.027063">
        <ele>330.905165</ele>
        <time>2021-12-23T12:17:32.020Z</time>
      </trkpt>
      <trkpt lat="48.435787" lon="8.027154">
        <ele>331.887494</ele>
        <time>2021-12-23T12:17:38.021Z</time>
      </trkpt>
      <trkpt lat="48.435862" lon="8.027257">
        <ele>332.948232</ele>
        <time>2021-12-23T12:17:46.022Z</time>
      </trkpt>
      <trkpt lat="48.435930" lon="8.027356">
        <ele>333.936609</ele>
        <time>2021-12-23T12:17:54.021Z</time>
      </trkpt>
      <trkpt lat="48.435989" lon="8.027461">
        <ele>334.890993</ele>
        <time>2021-12-23T12:18:03.025Z</time>
      </trkpt>
      <trkpt lat="48.435927" lon="8.027694">
        <ele>336.632226</ele>
        <time>2021-12-23T12:19:48.043Z</time>
      </trkpt>
      <trkpt lat="48.436030" lon="8.027693">
        <ele>337.709049</ele>
        <time>2021-12-23T12:19:57.019Z</time>
      </trkpt>
      <trkpt lat="48.436036" lon="8.027834">
        <ele>338.689038</ele>
        <time>2021-12-23T12:20:16.023Z</time>
      </trkpt>
      <trkpt lat="48.436046" lon="8.027976">
        <ele>339.990477</ele>
        <time>2021-12-23T12:20:23.022Z</time>
      </trkpt>
      <trkpt lat="48.436112" lon="8.028084">
        <ele>341.420399</ele>
        <time>2021-12-23T12:20:34.020Z</time>
      </trkpt>
      <trkpt lat="48.436123" lon="8.028235">
        <ele>342.899732</ele>
        <time>2021-12-23T12:20:45.022Z</time>
      </trkpt>
      <trkpt lat="48.436127" lon="8.028380">
        <ele>344.313016</ele>
        <time>2021-12-23T12:20:55.019Z</time>
      </trkpt>
      <trkpt lat="48.436085" lon="8.028515">
        <ele>345.765064</ele>
        <time>2021-12-23T12:21:04.020Z</time>
      </trkpt>
      <trkpt lat="48.436057" lon="8.028655">
        <ele>347.189038</ele>
        <time>2021-12-23T12:21:12.024Z</time>
      </trkpt>
      <trkpt lat="48.436010" lon="8.028773">
        <ele>348.529349</ele>
        <time>2021-12-23T12:21:20.022Z</time>
      </trkpt>
      <trkpt lat="48.435895" lon="8.028826">
        <ele>350.294497</ele>
        <time>2021-12-23T12:22:10.023Z</time>
      </trkpt>
      <trkpt lat="48.435819" lon="8.028904">
        <ele>351.644104</ele>
        <time>2021-12-23T12:22:22.018Z</time>
      </trkpt>
      <trkpt lat="48.435780" lon="8.029039">
        <ele>353.078018</ele>
        <time>2021-12-23T12:22:32.021Z</time>
      </trkpt>
      <trkpt lat="48.435746" lon="8.029185">
        <ele>354.584873</ele>
        <time>2021-12-23T12:22:46.019Z</time>
      </trkpt>
      <trkpt lat="48.435779" lon="8.029312">
        <ele>355.913127</ele>
        <time>2021-12-23T12:22:58.024Z</time>
      </trkpt>
      <trkpt lat="48.435730" lon="8.029436">
        <ele>357.318658</ele>
        <time>2021-12-23T12:23:20.020Z</time>
      </trkpt>
      <trkpt lat="48.435691" lon="8.029574">
        <ele>358.779407</ele>
        <time>2021-12-23T12:23:26.020Z</time>
      </trkpt>
      <trkpt lat="48.435758" lon="8.029665">
        <ele>360.103232</ele>
        <time>2021-12-23T12:23:36.020Z</time>
      </trkpt>
      <trkpt lat="48.435773" lon="8.029813">
        <ele>361.561242</ele>
        <time>2021-12-23T12:23:46.020Z</time>
      </trkpt>
      <trkpt lat="48.435786" lon="8.029968">
        <ele>363.082713</ele>
        <time>2021-12-23T12:23:55.021Z</time>
      </trkpt>
      <trkpt lat="48.435832" lon="8.030099">
        <ele>364.526111</ele>
        <time>2021-12-23T12:24:09.024Z</time>
      </trkpt>
      <trkpt lat="48.435886" lon="8.030218">
        <ele>365.478674</ele>
        <time>2021-12-23T12:24:15.021Z</time>
      </trkpt>
      <trkpt lat="48.435967" lon="8.030295">
        <ele>365.859767</ele>
        <time>2021-12-23T12:24:26.023Z</time>
      </trkpt>
      <trkpt lat="48.436134" lon="8.030397">
        <ele>366.576832</ele>
        <time>2021-12-23T12:25:30.024Z</time>
      </trkpt>
      <trkpt lat="48.436211" lon="8.030485">
        <ele>366.961376</ele>
        <time>2021-12-23T12:25:40.024Z</time>
      </trkpt>
      <trkpt lat="48.436274" lon="8.030592">
        <ele>367.339082</ele>
        <time>2021-12-23T12:25:51.022Z</time>
      </trkpt>
      <trkpt lat="48.436344" lon="8.030704">
        <ele>367.745330</ele>
        <time>2021-12-23T12:25:59.028Z</time>
      </trkpt>
      <trkpt lat="48.436426" lon="8.030761">
        <ele>368.104678</ele>
        <time>2021-12-23T12:26:09.021Z</time>
      </trkpt>
      <trkpt lat="48.436490" lon="8.030858">
        <ele>368.465860</ele>
        <time>2021-12-23T12:26:16.022Z</time>
      </trkpt>
      <trkpt lat="48.436575" lon="8.030917">
        <ele>368.838260</ele>
        <time>2021-12-23T12:26:24.022Z</time>
      </trkpt>
      <trkpt lat="48.436651" lon="8.031014">
        <ele>369.234564</ele>
        <time>2021-12-23T12:26:34.022Z</time>
      </trkpt>
      <trkpt lat="48.436738" lon="8.031092">
        <ele>369.637396</ele>
        <time>2021-12-23T12:26:42.023Z</time>
      </trkpt>
      <trkpt lat="48.436821" lon="8.031150">
        <ele>370.001464</ele>
        <time>2021-12-23T12:26:48.023Z</time>
      </trkpt>
      <trkpt lat="48.436908" lon="8.031188">
        <ele>370.361923</ele>
        <time>2021-12-23T12:27:13.065Z</time>
      </trkpt>
      <trkpt lat="48.437007" lon="8.031189">
        <ele>370.755901</ele>
        <time>2021-12-23T12:27:36.020Z</time>
      </trkpt>
      <trkpt lat="48.437106" lon="8.031206">
        <ele>371.152418</ele>
        <time>2021-12-23T12:27:44.021Z</time>
      </trkpt>
      <trkpt lat="48.437203" lon="8.031207">
        <ele>371.538438</ele>
        <time>2021-12-23T12:27:51.024Z</time>
      </trkpt>
      <trkpt lat="48.437302" lon="8.031236">
        <ele>371.939778</ele>
        <time>2021-12-23T12:28:00.022Z</time>
      </trkpt>
      <trkpt lat="48.437392" lon="8.031255">
        <ele>372.301427</ele>
        <time>2021-12-23T12:28:06.016Z</time>
      </trkpt>
      <trkpt lat="48.437480" lon="8.031292">
        <ele>372.544066</ele>
        <time>2021-12-23T12:28:13.019Z</time>
      </trkpt>
      <trkpt lat="48.437545" lon="8.031390">
        <ele>372.684843</ele>
        <time>2021-12-23T12:28:21.019Z</time>
      </trkpt>
      <trkpt lat="48.437641" lon="8.031381">
        <ele>372.832128</ele>
        <time>2021-12-23T12:28:31.021Z</time>
      </trkpt>
      <trkpt lat="48.437736" lon="8.031385">
        <ele>372.977654</ele>
        <time>2021-12-23T12:28:41.024Z</time>
      </trkpt>
      <trkpt lat="48.437827" lon="8.031395">
        <ele>373.117369</ele>
        <time>2021-12-23T12:28:52.020Z</time>
      </trkpt>
      <trkpt lat="48.437940" lon="8.031377">
        <ele>373.291364</ele>
        <time>2021-12-23T12:29:05.020Z</time>
      </trkpt>
      <trkpt lat="48.438016" lon="8.031295">
        <ele>373.434482</ele>
        <time>2021-12-23T12:29:12.030Z</time>
      </trkpt>
      <trkpt lat="48.438105" lon="8.031326">
        <ele>373.574355</ele>
        <time>2021-12-23T12:29:21.026Z</time>
      </trkpt>
      <trkpt lat="48.438272" lon="8.031228">
        <ele>373.848771</ele>
        <time>2021-12-23T12:30:10.018Z</time>
      </trkpt>
      <trkpt lat="48.438370" lon="8.031200">
        <ele>374.001506</ele>
        <time>2021-12-23T12:30:30.025Z</time>
      </trkpt>
      <trkpt lat="48.438461" lon="8.031244">
        <ele>374.147845</ele>
        <time>2021-12-23T12:30:43.017Z</time>
      </trkpt>
      <trkpt lat="48.438546" lon="8.031296">
        <ele>374.288313</ele>
        <time>2021-12-23T12:30:52.017Z</time>
      </trkpt>
      <trkpt lat="48.438643" lon="8.031282">
        <ele>374.437524</ele>
        <time>2021-12-23T12:31:03.018Z</time>
      </trkpt>
      <trkpt lat="48.438737" lon="8.031305">
        <ele>374.583346</ele>
        <time>2021-12-23T12:31:11.020Z</time>
      </trkpt>
      <trkpt lat="48.438835" lon="8.031296">
        <ele>374.733688</ele>
        <time>2021-12-23T12:31:16.019Z</time>
      </trkpt>
      <trkpt lat="48.438926" lon="8.031314">
        <ele>374.874227</ele>
        <time>2021-12-23T12:31:24.019Z</time>
      </trkpt>
      <trkpt lat="48.439020" lon="8.031291">
        <ele>375.020049</ele>
        <time>2021-12-23T12:31:32.025Z</time>
      </trkpt>
      <trkpt lat="48.439122" lon="8.031255">
        <ele>375.180462</ele>
        <time>2021-12-23T12:31:41.019Z</time>
      </trkpt>
      <trkpt lat="48.439213" lon="8.031246">
        <ele>375.849234</ele>
        <time>2021-12-23T12:31:49.022Z</time>
      </trkpt>
      <trkpt lat="48.439311" lon="8.031232">
        <ele>376.818116</ele>
        <time>2021-12-23T12:31:58.022Z</time>
      </trkpt>
      <trkpt lat="48.439403" lon="8.031194">
        <ele>377.757001</ele>
        <time>2021-12-23T12:32:07.023Z</time>
      </trkpt>
      <trkpt lat="48.439493" lon="8.031177">
        <ele>378.649749</ele>
        <time>2021-12-23T12:32:14.023Z</time>
      </trkpt>
      <trkpt lat="48.439592" lon="8.031164">
        <ele>379.627842</ele>
        <time>2021-12-23T12:32:24.021Z</time>
      </trkpt>
      <trkpt lat="48.439684" lon="8.031160">
        <ele>380.533723</ele>
        <time>2021-12-23T12:32:32.026Z</time>
      </trkpt>
      <trkpt lat="48.439776" lon="8.031184">
        <ele>381.452689</ele>
        <time>2021-12-23T12:32:39.023Z</time>
      </trkpt>
      <trkpt lat="48.439840" lon="8.031299">
        <ele>382.432812</ele>
        <time>2021-12-23T12:32:50.022Z</time>
      </trkpt>
      <trkpt lat="48.439914" lon="8.031393">
        <ele>383.385283</ele>
        <time>2021-12-23T12:32:57.019Z</time>
      </trkpt>
      <trkpt lat="48.440014" lon="8.031417">
        <ele>384.381925</ele>
        <time>2021-12-23T12:33:05.025Z</time>
      </trkpt>
      <trkpt lat="48.440107" lon="8.031494">
        <ele>385.426263</ele>
        <time>2021-12-23T12:33:12.019Z</time>
      </trkpt>
      <trkpt lat="48.440193" lon="8.031542">
        <ele>386.328874</ele>
        <time>2021-12-23T12:33:18.023Z</time>
      </trkpt>
      <trkpt lat="48.440274" lon="8.031609">
        <ele>387.238255</ele>
        <time>2021-12-23T12:33:26.022Z</time>
      </trkpt>
      <trkpt lat="48.440346" lon="8.031702">
        <ele>388.171495</ele>
        <time>2021-12-23T12:33:34.026Z</time>
      </trkpt>
      <trkpt lat="48.440426" lon="8.031769">
        <ele>389.072259</ele>
        <time>2021-12-23T12:33:40.020Z</time>
      </trkpt>
      <trkpt lat="48.440509" lon="8.031838">
        <ele>390.005180</ele>
        <time>2021-12-23T12:33:48.024Z</time>
      </trkpt>
      <trkpt lat="48.440591" lon="8.031901">
        <ele>390.911046</ele>
        <time>2021-12-23T12:33:57.022Z</time>
      </trkpt>
      <trkpt lat="48.440733" lon="8.031902">
        <ele>392.308688</ele>
        <time>2021-12-23T12:35:24.024Z</time>
      </trkpt>
      <trkpt lat="48.440716" lon="8.032035">
        <ele>393.393974</ele>
        <time>2021-12-23T12:35:42.018Z</time>
      </trkpt>
      <trkpt lat="48.440811" lon="8.032036">
        <ele>395.031527</ele>
        <time>2021-12-23T12:36:35.020Z</time>
      </trkpt>
      <trkpt lat="48.440905" lon="8.032064">
        <ele>396.683134</ele>
        <time>2021-12-23T12:36:47.020Z</time>
      </trkpt>
      <trkpt lat="48.440994" lon="8.032083">
        <ele>398.232533</ele>
        <time>2021-12-23T12:37:00.024Z</time>
      </trkpt>
      <trkpt lat="48.441083" lon="8.032132">
        <ele>399.865744</ele>
        <time>2021-12-23T12:37:11.028Z</time>
      </trkpt>
      <trkpt lat="48.441188" lon="8.032188">
        <ele>401.785568</ele>
        <time>2021-12-23T12:37:23.020Z</time>
      </trkpt>
      <trkpt lat="48.441273" lon="8.032238">
        <ele>403.358314</ele>
        <time>2021-12-23T12:37:34.025Z</time>
      </trkpt>
      <trkpt lat="48.441352" lon="8.032306">
        <ele>404.926400</ele>
        <time>2021-12-23T12:37:50.022Z</time>
      </trkpt>
      <trkpt lat="48.441445" lon="8.032291">
        <ele>406.538589</ele>
        <time>2021-12-23T12:38:03.021Z</time>
      </trkpt>
      <trkpt lat="48.441525" lon="8.032382">
        <ele>408.266100</ele>
        <time>2021-12-23T12:38:15.020Z</time>
      </trkpt>
      <trkpt lat="48.441615" lon="8.032395">
        <ele>409.824534</ele>
        <time>2021-12-23T12:38:26.029Z</time>
      </trkpt>
      <trkpt lat="48.441694" lon="8.032479">
        <ele>411.490929</ele>
        <time>2021-12-23T12:38:40.020Z</time>
      </trkpt>
      <trkpt lat="48.441787" lon="8.032529">
        <ele>413.192873</ele>
        <time>2021-12-23T12:38:48.014Z</time>
      </trkpt>
      <trkpt lat="48.441883" lon="8.032622">
        <ele>415.159868</ele>
        <time>2021-12-23T12:39:04.020Z</time>
      </trkpt>
      <trkpt lat="48.441932" lon="8.032755">
        <ele>416.899473</ele>
        <time>2021-12-23T12:39:09.022Z</time>
      </trkpt>
      <trkpt lat="48.442074" lon="8.032783">
        <ele>419.367975</ele>
        <time>2021-12-23T12:39:49.026Z</time>
      </trkpt>
      <trkpt lat="48.442159" lon="8.032848">
        <ele>421.010858</ele>
        <time>2021-12-23T12:40:05.020Z</time>
      </trkpt>
      <trkpt lat="48.442248" lon="8.032884">
        <ele>422.599218</ele>
        <time>2021-12-23T12:40:18.021Z</time>
      </trkpt>
      <trkpt lat="48.442299" lon="8.032997">
        <ele>424.114358</ele>
        <time>2021-12-23T12:40:32.038Z</time>
      </trkpt>
      <trkpt lat="48.442245" lon="8.033107">
        <ele>425.359314</ele>
        <time>2021-12-23T12:41:21.021Z</time>
      </trkpt>
      <trkpt lat="48.442321" lon="8.033181">
        <ele>426.600109</ele>
        <time>2021-12-23T12:41:32.021Z</time>
      </trkpt>
      <trkpt lat="48.442410" lon="8.033126">
        <ele>427.919251</ele>
        <time>2021-12-23T12:41:42.018Z</time>
      </trkpt>
      <trkpt lat="48.442491" lon="8.033187">
        <ele>429.161006</ele>
        <time>2021-12-23T12:41:50.023Z</time>
      </trkpt>
      <trkpt lat="48.442584" lon="8.033239">
        <ele>430.521333</ele>
        <time>2021-12-23T12:41:59.024Z</time>
      </trkpt>
      <trkpt lat="48.442620" lon="8.033373">
        <ele>431.836587</ele>
        <time>2021-12-23T12:42:09.020Z</time>
      </trkpt>
      <trkpt lat="48.442596" lon="8.033504">
        <ele>433.072983</ele>
        <time>2021-12-23T12:42:31.018Z</time>
      </trkpt>
      <trkpt lat="48.442693" lon="8.033503">
        <ele>434.403288</ele>
        <time>2021-12-23T12:43:01.022Z</time>
      </trkpt>
      <trkpt lat="48.442782" lon="8.033551">
        <ele>435.699614</ele>
        <time>2021-12-23T12:43:18.024Z</time>
      </trkpt>
      <trkpt lat="48.442877" lon="8.033560">
        <ele>437.005030</ele>
        <time>2021-12-23T12:43:27.023Z</time>
      </trkpt>
      <trkpt lat="48.442976" lon="8.033585">
        <ele>438.381651</ele>
        <time>2021-12-23T12:43:52.024Z</time>
      </trkpt>
      <trkpt lat="48.443026" lon="8.033709">
        <ele>439.701795</ele>
        <time>2021-12-23T12:44:04.021Z</time>
      </trkpt>
      <trkpt lat="48.443094" lon="8.033831">
        <ele>441.151463</ele>
        <time>2021-12-23T12:44:14.026Z</time>
      </trkpt>
      <trkpt lat="48.443153" lon="8.033943">
        <ele>442.452575</ele>
        <time>2021-12-23T12:44:29.022Z</time>
      </trkpt>
      <trkpt lat="48.443244" lon="8.033982">
        <ele>443.750019</ele>
        <time>2021-12-23T12:44:47.024Z</time>
      </trkpt>
      <trkpt lat="48.443377" lon="8.033997">
        <ele>445.579101</ele>
        <time>2021-12-23T12:45:44.028Z</time>
      </trkpt>
      <trkpt lat="48.443470" lon="8.034035">
        <ele>446.900540</ele>
        <time>2021-12-23T12:45:54.026Z</time>
      </trkpt>
      <trkpt lat="48.443560" lon="8.034073">
        <ele>448.182314</ele>
        <time>2021-12-23T12:46:04.029Z</time>
      </trkpt>
      <trkpt lat="48.443655" lon="8.034124">
        <ele>449.377763</ele>
        <time>2021-12-23T12:46:14.023Z</time>
      </trkpt>
      <trkpt lat="48.443743" lon="8.034084">
        <ele>450.394456</ele>
        <time>2021-12-23T12:46:21.028Z</time>
      </trkpt>
      <trkpt lat="48.443837" lon="8.034118">
        <ele>451.463741</ele>
        <time>2021-12-23T12:46:29.026Z</time>
      </trkpt>
      <trkpt lat="48.443907" lon="8.034216">
        <ele>452.520448</ele>
        <time>2021-12-23T12:46:56.025Z</time>
      </trkpt>
      <trkpt lat="48.444005" lon="8.034232">
        <ele>453.610807</ele>
        <time>2021-12-23T12:47:07.030Z</time>
      </trkpt>
      <trkpt lat="48.444093" lon="8.034264">
        <ele>454.612132</ele>
        <time>2021-12-23T12:47:19.026Z</time>
      </trkpt>
      <trkpt lat="48.444186" lon="8.034246">
        <ele>455.649289</ele>
        <time>2021-12-23T12:47:27.025Z</time>
      </trkpt>
      <trkpt lat="48.444280" lon="8.034236">
        <ele>456.691649</ele>
        <time>2021-12-23T12:47:37.025Z</time>
      </trkpt>
      <trkpt lat="48.444379" lon="8.034248">
        <ele>457.790265</ele>
        <time>2021-12-23T12:47:46.025Z</time>
      </trkpt>
      <trkpt lat="48.444531" lon="8.034124">
        <ele>459.702001</ele>
        <time>2021-12-23T12:48:47.025Z</time>
      </trkpt>
      <trkpt lat="48.444608" lon="8.034041">
        <ele>460.749065</ele>
        <time>2021-12-23T12:49:02.024Z</time>
      </trkpt>
      <trkpt lat="48.444682" lon="8.033936">
        <ele>461.873163</ele>
        <time>2021-12-23T12:49:17.020Z</time>
      </trkpt>
      <trkpt lat="48.444789" lon="8.033871">
        <ele>463.149218</ele>
        <time>2021-12-23T12:49:29.025Z</time>
      </trkpt>
      <trkpt lat="48.444871" lon="8.033809">
        <ele>464.163946</ele>
        <time>2021-12-23T12:49:35.021Z</time>
      </trkpt>
      <trkpt lat="48.444961" lon="8.033775">
        <ele>465.190257</ele>
        <time>2021-12-23T12:49:43.022Z</time>
      </trkpt>
      <trkpt lat="48.445051" lon="8.033735">
        <ele>466.228149</ele>
        <time>2021-12-23T12:49:50.024Z</time>
      </trkpt>
      <trkpt lat="48.445248" lon="8.033765">
        <ele>468.418340</ele>
        <time>2021-12-23T12:50:44.025Z</time>
      </trkpt>
      <trkpt lat="48.445341" lon="8.033740">
        <ele>469.729351</ele>
        <time>2021-12-23T12:50:57.025Z</time>
      </trkpt>
      <trkpt lat="48.445431" lon="8.033756">
        <ele>471.006183</ele>
        <time>2021-12-23T12:51:06.028Z</time>
      </trkpt>
      <trkpt lat="48.445519" lon="8.033725">
        <ele>472.279450</ele>
        <time>2021-12-23T12:51:20.023Z</time>
      </trkpt>
      <trkpt lat="48.445604" lon="8.033797">
        <ele>473.653149</ele>
        <time>2021-12-23T12:51:29.025Z</time>
      </trkpt>
      <trkpt lat="48.445693" lon="8.033833">
        <ele>474.951458</ele>
        <time>2021-12-23T12:51:37.024Z</time>
      </trkpt>
      <trkpt lat="48.445770" lon="8.033906">
        <ele>476.233034</ele>
        <time>2021-12-23T12:51:45.025Z</time>
      </trkpt>
      <trkpt lat="48.445845" lon="8.033996">
        <ele>477.583636</ele>
        <time>2021-12-23T12:52:06.019Z</time>
      </trkpt>
      <trkpt lat="48.445936" lon="8.034018">
        <ele>478.882152</ele>
        <time>2021-12-23T12:52:16.024Z</time>
      </trkpt>
      <trkpt lat="48.446023" lon="8.034061">
        <ele>480.172126</ele>
        <time>2021-12-23T12:52:25.026Z</time>
      </trkpt>
      <trkpt lat="48.446113" lon="8.034109">
        <ele>481.517184</ele>
        <time>2021-12-23T12:52:36.026Z</time>
      </trkpt>
      <trkpt lat="48.446191" lon="8.034186">
        <ele>482.830808</ele>
        <time>2021-12-23T12:52:46.025Z</time>
      </trkpt>
      <trkpt lat="48.446287" lon="8.034206">
        <ele>484.196244</ele>
        <time>2021-12-23T12:52:54.027Z</time>
      </trkpt>
      <trkpt lat="48.446380" lon="8.034242">
        <ele>485.549063</ele>
        <time>2021-12-23T12:53:02.027Z</time>
      </trkpt>
      <trkpt lat="48.446471" lon="8.034271">
        <ele>486.859530</ele>
        <time>2021-12-23T12:53:09.026Z</time>
      </trkpt>
      <trkpt lat="48.446562" lon="8.034323">
        <ele>488.230678</ele>
        <time>2021-12-23T12:53:26.027Z</time>
      </trkpt>
      <trkpt lat="48.446642" lon="8.034402">
        <ele>489.578112</ele>
        <time>2021-12-23T12:53:34.025Z</time>
      </trkpt>
      <trkpt lat="48.446726" lon="8.034469">
        <ele>490.917058</ele>
        <time>2021-12-23T12:53:42.029Z</time>
      </trkpt>
      <trkpt lat="48.446797" lon="8.034555">
        <ele>492.200287</ele>
        <time>2021-12-23T12:53:50.027Z</time>
      </trkpt>
      <trkpt lat="48.446866" lon="8.034664">
        <ele>493.608415</ele>
        <time>2021-12-23T12:53:58.025Z</time>
      </trkpt>
      <trkpt lat="48.446939" lon="8.034760">
        <ele>494.810453</ele>
        <time>2021-12-23T12:54:07.025Z</time>
      </trkpt>
      <trkpt lat="48.447010" lon="8.034857">
        <ele>495.967678</ele>
        <time>2021-12-23T12:54:16.021Z</time>
      </trkpt>
      <trkpt lat="48.447048" lon="8.034991">
        <ele>497.135163</ele>
        <time>2021-12-23T12:54:25.020Z</time>
      </trkpt>
      <trkpt lat="48.447103" lon="8.035107">
        <ele>498.277456</ele>
        <time>2021-12-23T12:54:34.024Z</time>
      </trkpt>
      <trkpt lat="48.447171" lon="8.035209">
        <ele>499.435988</ele>
        <time>2021-12-23T12:54:45.024Z</time>
      </trkpt>
      <trkpt lat="48.447254" lon="8.035278">
        <ele>500.580726</ele>
        <time>2021-12-23T12:55:01.023Z</time>
      </trkpt>
      <trkpt lat="48.447305" lon="8.035402">
        <ele>501.749571</ele>
        <time>2021-12-23T12:55:10.021Z</time>
      </trkpt>
      <trkpt lat="48.447372" lon="8.035497">
        <ele>502.860426</ele>
        <time>2021-12-23T12:55:21.024Z</time>
      </trkpt>
      <trkpt lat="48.447422" lon="8.035614">
        <ele>503.975412</ele>
        <time>2021-12-23T12:57:02.029Z</time>
      </trkpt>
      <trkpt lat="48.447509" lon="8.035684">
        <ele>505.166433</ele>
        <time>2021-12-23T12:57:09.023Z</time>
      </trkpt>
      <trkpt lat="48.447597" lon="8.035726">
        <ele>506.281241</ele>
        <time>2021-12-23T12:57:17.028Z</time>
      </trkpt>
      <trkpt lat="48.447679" lon="8.035787">
        <ele>507.385599</ele>
        <time>2021-12-23T12:57:26.022Z</time>
      </trkpt>
      <trkpt lat="48.447752" lon="8.035876">
        <ele>508.519472</ele>
        <time>2021-12-23T12:57:34.027Z</time>
      </trkpt>
      <trkpt lat="48.447827" lon="8.035962">
        <ele>509.657518</ele>
        <time>2021-12-23T12:57:43.023Z</time>
      </trkpt>
      <trkpt lat="48.447874" lon="8.036086">
        <ele>510.801632</ele>
        <time>2021-12-23T12:57:57.027Z</time>
      </trkpt>
      <trkpt lat="48.447938" lon="8.036190">
        <ele>511.938118</ele>
        <time>2021-12-23T12:58:19.031Z</time>
      </trkpt>
      <trkpt lat="48.447976" lon="8.036328">
        <ele>513.135116</ele>
        <time>2021-12-23T12:58:40.024Z</time>
      </trkpt>
      <trkpt lat="48.448057" lon="8.036420">
        <ele>514.359949</ele>
        <time>2021-12-23T12:58:50.023Z</time>
      </trkpt>
      <trkpt lat="48.448129" lon="8.036510">
        <ele>515.489548</ele>
        <time>2021-12-23T12:58:57.027Z</time>
      </trkpt>
      <trkpt lat="48.448194" lon="8.036621">
        <ele>515.824193</ele>
        <time>2021-12-23T12:59:03.029Z</time>
      </trkpt>
      <trkpt lat="48.448275" lon="8.036705">
        <ele>516.108413</ele>
        <time>2021-12-23T12:59:10.027Z</time>
      </trkpt>
      <trkpt lat="48.448352" lon="8.036807">
        <ele>516.404739</ele>
        <time>2021-12-23T12:59:18.026Z</time>
      </trkpt>
      <trkpt lat="48.448433" lon="8.036903">
        <ele>516.702604</ele>
        <time>2021-12-23T12:59:26.025Z</time>
      </trkpt>
      <trkpt lat="48.448512" lon="8.036978">
        <ele>516.972500</ele>
        <time>2021-12-23T12:59:34.022Z</time>
      </trkpt>
      <trkpt lat="48.448579" lon="8.037086">
        <ele>517.256062</ele>
        <time>2021-12-23T12:59:43.025Z</time>
      </trkpt>
      <trkpt lat="48.448642" lon="8.037189">
        <ele>517.524728</ele>
        <time>2021-12-23T12:59:49.024Z</time>
      </trkpt>
      <trkpt lat="48.448694" lon="8.037315">
        <ele>517.809291</ele>
        <time>2021-12-23T12:59:56.022Z</time>
      </trkpt>
      <trkpt lat="48.448747" lon="8.037444">
        <ele>518.100266</ele>
        <time>2021-12-23T13:00:04.026Z</time>
      </trkpt>
      <trkpt lat="48.448776" lon="8.037573">
        <ele>518.361452</ele>
        <time>2021-12-23T13:00:11.025Z</time>
      </trkpt>
      <trkpt lat="48.448804" lon="8.037705">
        <ele>518.627197</ele>
        <time>2021-12-23T13:00:17.024Z</time>
      </trkpt>
      <trkpt lat="48.448833" lon="8.037848">
        <ele>518.913938</ele>
        <time>2021-12-23T13:00:25.022Z</time>
      </trkpt>
      <trkpt lat="48.448883" lon="8.037974">
        <ele>519.195488</ele>
        <time>2021-12-23T13:00:33.022Z</time>
      </trkpt>
      <trkpt lat="48.448915" lon="8.038114">
        <ele>519.479438</ele>
        <time>2021-12-23T13:00:41.028Z</time>
      </trkpt>
      <trkpt lat="48.448967" lon="8.038232">
        <ele>519.751095</ele>
        <time>2021-12-23T13:00:49.026Z</time>
      </trkpt>
      <trkpt lat="48.449017" lon="8.038346">
        <ele>520.013165</ele>
        <time>2021-12-23T13:00:56.026Z</time>
      </trkpt>
      <trkpt lat="48.449056" lon="8.038470">
        <ele>520.276318</ele>
        <time>2021-12-23T13:01:04.024Z</time>
      </trkpt>
      <trkpt lat="48.449097" lon="8.038607">
        <ele>520.564524</ele>
        <time>2021-12-23T13:01:12.029Z</time>
      </trkpt>
      <trkpt lat="48.449108" lon="8.038744">
        <ele>520.860600</ele>
        <time>2021-12-23T13:01:19.024Z</time>
      </trkpt>
      <trkpt lat="48.449125" lon="8.038887">
        <ele>521.259075</ele>
        <time>2021-12-23T13:01:29.027Z</time>
      </trkpt>
      <trkpt lat="48.449123" lon="8.039038">
        <ele>521.673325</ele>
        <time>2021-12-23T13:01:36.031Z</time>
      </trkpt>
      <trkpt lat="48.449103" lon="8.039175">
        <ele>522.058087</ele>
        <time>2021-12-23T13:01:42.030Z</time>
      </trkpt>
      <trkpt lat="48.449101" lon="8.039320">
        <ele>522.455884</ele>
        <time>2021-12-23T13:01:51.030Z</time>
      </trkpt>
      <trkpt lat="48.449136" lon="8.039459">
        <ele>522.863685</ele>
        <time>2021-12-23T13:02:46.027Z</time>
      </trkpt>
      <trkpt lat="48.449221" lon="8.039513">
        <ele>523.245111</ele>
        <time>2021-12-23T13:02:53.026Z</time>
      </trkpt>
      <trkpt lat="48.449311" lon="8.039554">
        <ele>523.633900</ele>
        <time>2021-12-23T13:03:02.027Z</time>
      </trkpt>
      <trkpt lat="48.449411" lon="8.039571">
        <ele>524.050043</ele>
        <time>2021-12-23T13:03:11.025Z</time>
      </trkpt>
      <trkpt lat="48.449500" lon="8.039599">
        <ele>524.426006</ele>
        <time>2021-12-23T13:03:20.025Z</time>
      </trkpt>
      <trkpt lat="48.449580" lon="8.039683">
        <ele>524.829147</ele>
        <time>2021-12-23T13:03:34.023Z</time>
      </trkpt>
      <trkpt lat="48.449670" lon="8.039698">
        <ele>525.203584</ele>
        <time>2021-12-23T13:03:42.025Z</time>
      </trkpt>
      <trkpt lat="48.449757" lon="8.039766">
        <ele>525.608821</ele>
        <time>2021-12-23T13:03:50.025Z</time>
      </trkpt>
      <trkpt lat="48.449847" lon="8.039844">
        <ele>526.038100</ele>
        <time>2021-12-23T13:03:57.026Z</time>
      </trkpt>
      <trkpt lat="48.449919" lon="8.039938">
        <ele>526.431951</ele>
        <time>2021-12-23T13:04:05.028Z</time>
      </trkpt>
      <trkpt lat="48.449977" lon="8.040065">
        <ele>526.854871</ele>
        <time>2021-12-23T13:04:14.026Z</time>
      </trkpt>
      <trkpt lat="48.450034" lon="8.040180">
        <ele>527.248633</ele>
        <time>2021-12-23T13:04:22.031Z</time>
      </trkpt>
      <trkpt lat="48.450072" lon="8.040304">
        <ele>527.623285</ele>
        <time>2021-12-23T13:04:29.025Z</time>
      </trkpt>
      <trkpt lat="48.450138" lon="8.040410">
        <ele>528.022051</ele>
        <time>2021-12-23T13:04:38.024Z</time>
      </trkpt>
      <trkpt lat="48.450226" lon="8.040479">
        <ele>528.760498</ele>
        <time>2021-12-23T13:04:46.029Z</time>
      </trkpt>
      <trkpt lat="48.450320" lon="8.040506">
        <ele>529.701158</ele>
        <time>2021-12-23T13:04:54.025Z</time>
      </trkpt>
      <trkpt lat="48.450411" lon="8.040412">
        <ele>530.785524</ele>
        <time>2021-12-23T13:05:29.030Z</time>
      </trkpt>
      <trkpt lat="48.450461" lon="8.040293">
        <ele>531.703992</ele>
        <time>2021-12-23T13:05:38.021Z</time>
      </trkpt>
      <trkpt lat="48.450527" lon="8.040181">
        <ele>532.680820</ele>
        <time>2021-12-23T13:05:46.029Z</time>
      </trkpt>
      <trkpt lat="48.450585" lon="8.040064">
        <ele>533.633190</ele>
        <time>2021-12-23T13:05:55.030Z</time>
      </trkpt>
      <trkpt lat="48.450640" lon="8.039937">
        <ele>534.622115</ele>
        <time>2021-12-23T13:06:03.027Z</time>
      </trkpt>
      <trkpt lat="48.450692" lon="8.039817">
        <ele>535.556702</ele>
        <time>2021-12-23T13:06:10.021Z</time>
      </trkpt>
      <trkpt lat="48.450770" lon="8.039745">
        <ele>536.455752</ele>
        <time>2021-12-23T13:06:19.023Z</time>
      </trkpt>
      <trkpt lat="48.450861" lon="8.039683">
        <ele>537.437399</ele>
        <time>2021-12-23T13:06:27.026Z</time>
      </trkpt>
      <trkpt lat="48.450948" lon="8.039633">
        <ele>538.352654</ele>
        <time>2021-12-23T13:06:36.024Z</time>
      </trkpt>
      <trkpt lat="48.451050" lon="8.039632">
        <ele>539.355357</ele>
        <time>2021-12-23T13:06:45.026Z</time>
      </trkpt>
      <trkpt lat="48.451136" lon="8.039676">
        <ele>540.248105</ele>
        <time>2021-12-23T13:06:53.029Z</time>
      </trkpt>
      <trkpt lat="48.451222" lon="8.039762">
        <ele>541.262552</ele>
        <time>2021-12-23T13:07:01.027Z</time>
      </trkpt>
      <trkpt lat="48.451371" lon="8.039847">
        <ele>542.828593</ele>
        <time>2021-12-23T13:09:15.030Z</time>
      </trkpt>
      <trkpt lat="48.451466" lon="8.039845">
        <ele>543.762554</ele>
        <time>2021-12-23T13:09:25.027Z</time>
      </trkpt>
      <trkpt lat="48.451563" lon="8.039831">
        <ele>544.720444</ele>
        <time>2021-12-23T13:09:35.025Z</time>
      </trkpt>
      <trkpt lat="48.451656" lon="8.039814">
        <ele>545.641349</ele>
        <time>2021-12-23T13:09:44.026Z</time>
      </trkpt>
      <trkpt lat="48.451750" lon="8.039785">
        <ele>546.742464</ele>
        <time>2021-12-23T13:09:54.027Z</time>
      </trkpt>
      <trkpt lat="48.451845" lon="8.039791">
        <ele>547.885168</ele>
        <time>2021-12-23T13:10:04.026Z</time>
      </trkpt>
      <trkpt lat="48.451929" lon="8.039735">
        <ele>548.988957</ele>
        <time>2021-12-23T13:10:11.027Z</time>
      </trkpt>
      <trkpt lat="48.452017" lon="8.039695">
        <ele>550.093550</ele>
        <time>2021-12-23T13:10:19.026Z</time>
      </trkpt>
      <trkpt lat="48.452104" lon="8.039653">
        <ele>551.191398</ele>
        <time>2021-12-23T13:10:27.030Z</time>
      </trkpt>
      <trkpt lat="48.452201" lon="8.039661">
        <ele>552.358880</ele>
        <time>2021-12-23T13:10:37.031Z</time>
      </trkpt>
      <trkpt lat="48.452296" lon="8.039709">
        <ele>553.562985</ele>
        <time>2021-12-23T13:10:47.027Z</time>
      </trkpt>
      <trkpt lat="48.452371" lon="8.039805">
        <ele>554.745334</ele>
        <time>2021-12-23T13:10:55.031Z</time>
      </trkpt>
      <trkpt lat="48.452436" lon="8.039920">
        <ele>555.949681</ele>
        <time>2021-12-23T13:11:04.024Z</time>
      </trkpt>
      <trkpt lat="48.452538" lon="8.040076">
        <ele>557.695763</ele>
        <time>2021-12-23T13:12:02.029Z</time>
      </trkpt>
      <trkpt lat="48.452609" lon="8.040169">
        <ele>558.826061</ele>
        <time>2021-12-23T13:12:11.031Z</time>
      </trkpt>
      <trkpt lat="48.452707" lon="8.040200">
        <ele>560.029459</ele>
        <time>2021-12-23T13:12:20.028Z</time>
      </trkpt>
      <trkpt lat="48.452797" lon="8.040189">
        <ele>561.114621</ele>
        <time>2021-12-23T13:12:28.030Z</time>
      </trkpt>
      <trkpt lat="48.452884" lon="8.040140">
        <ele>562.230747</ele>
        <time>2021-12-23T13:12:36.026Z</time>
      </trkpt>
      <trkpt lat="48.452967" lon="8.040087">
        <ele>563.314003</ele>
        <time>2021-12-23T13:12:44.032Z</time>
      </trkpt>
      <trkpt lat="48.453048" lon="8.040013">
        <ele>564.452208</ele>
        <time>2021-12-23T13:12:53.027Z</time>
      </trkpt>
      <trkpt lat="48.453123" lon="8.039937">
        <ele>565.538202</ele>
        <time>2021-12-23T13:13:02.031Z</time>
      </trkpt>
      <trkpt lat="48.453253" lon="8.039777">
        <ele>567.539262</ele>
        <time>2021-12-23T13:13:49.031Z</time>
      </trkpt>
      <trkpt lat="48.453320" lon="8.039684">
        <ele>568.365727</ele>
        <time>2021-12-23T13:13:58.027Z</time>
      </trkpt>
      <trkpt lat="48.453411" lon="8.039620">
        <ele>569.276993</ele>
        <time>2021-12-23T13:14:08.029Z</time>
      </trkpt>
      <trkpt lat="48.453484" lon="8.039517">
        <ele>570.184314</ele>
        <time>2021-12-23T13:14:19.029Z</time>
      </trkpt>
      <trkpt lat="48.453566" lon="8.039441">
        <ele>571.057831</ele>
        <time>2021-12-23T13:14:28.027Z</time>
      </trkpt>
      <trkpt lat="48.453646" lon="8.039362">
        <ele>571.925699</ele>
        <time>2021-12-23T13:14:37.032Z</time>
      </trkpt>
      <trkpt lat="48.453691" lon="8.039234">
        <ele>572.797664</ele>
        <time>2021-12-23T13:15:45.028Z</time>
      </trkpt>
      <trkpt lat="48.453763" lon="8.039136">
        <ele>573.677934</ele>
        <time>2021-12-23T13:15:54.025Z</time>
      </trkpt>
      <trkpt lat="48.453820" lon="8.039019">
        <ele>574.551717</ele>
        <time>2021-12-23T13:16:04.026Z</time>
      </trkpt>
      <trkpt lat="48.453875" lon="8.038903">
        <ele>575.409975</ele>
        <time>2021-12-23T13:16:17.033Z</time>
      </trkpt>
      <trkpt lat="48.453927" lon="8.038791">
        <ele>576.232854</ele>
        <time>2021-12-23T13:16:29.028Z</time>
      </trkpt>
      <trkpt lat="48.453985" lon="8.038679">
        <ele>577.088123</ele>
        <time>2021-12-23T13:16:48.032Z</time>
      </trkpt>
      <trkpt lat="48.454034" lon="8.038565">
        <ele>577.905770</ele>
        <time>2021-12-23T13:16:58.028Z</time>
      </trkpt>
      <trkpt lat="48.454102" lon="8.038455">
        <ele>578.810851</ele>
        <time>2021-12-23T13:17:08.028Z</time>
      </trkpt>
      <trkpt lat="48.454128" lon="8.038320">
        <ele>579.656962</ele>
        <time>2021-12-23T13:17:16.026Z</time>
      </trkpt>
      <trkpt lat="48.454182" lon="8.038204">
        <ele>580.509971</ele>
        <time>2021-12-23T13:17:25.024Z</time>
      </trkpt>
      <trkpt lat="48.454238" lon="8.038097">
        <ele>581.330358</ele>
        <time>2021-12-23T13:17:35.027Z</time>
      </trkpt>
      <trkpt lat="48.454313" lon="8.037993">
        <ele>582.255071</ele>
        <time>2021-12-23T13:17:44.028Z</time>
      </trkpt>
      <trkpt lat="48.454396" lon="8.037896">
        <ele>583.208080</ele>
        <time>2021-12-23T13:17:58.026Z</time>
      </trkpt>
      <trkpt lat="48.454479" lon="8.037834">
        <ele>583.905761</ele>
        <time>2021-12-23T13:18:07.028Z</time>
      </trkpt>
      <trkpt lat="48.454570" lon="8.037791">
        <ele>584.244328</ele>
        <time>2021-12-23T13:18:17.024Z</time>
      </trkpt>
      <trkpt lat="48.454706" lon="8.037785">
        <ele>584.727369</ele>
        <time>2021-12-23T13:18:43.027Z</time>
      </trkpt>
      <trkpt lat="48.454803" lon="8.037813">
        <ele>585.077998</ele>
        <time>2021-12-23T13:18:50.028Z</time>
      </trkpt>
      <trkpt lat="48.454886" lon="8.037867">
        <ele>585.398930</ele>
        <time>2021-12-23T13:18:58.022Z</time>
      </trkpt>
      <trkpt lat="48.454980" lon="8.037896">
        <ele>585.739568</ele>
        <time>2021-12-23T13:19:05.030Z</time>
      </trkpt>
      <trkpt lat="48.455068" lon="8.037974">
        <ele>586.101973</ele>
        <time>2021-12-23T13:19:12.032Z</time>
      </trkpt>
      <trkpt lat="48.455160" lon="8.038016">
        <ele>586.443239</ele>
        <time>2021-12-23T13:19:20.027Z</time>
      </trkpt>
      <trkpt lat="48.455252" lon="8.038086">
        <ele>586.809091</ele>
        <time>2021-12-23T13:19:29.025Z</time>
      </trkpt>
      <trkpt lat="48.455338" lon="8.038143">
        <ele>587.142608</ele>
        <time>2021-12-23T13:19:37.031Z</time>
      </trkpt>
      <trkpt lat="48.455431" lon="8.038177">
        <ele>587.482348</ele>
        <time>2021-12-23T13:19:46.029Z</time>
      </trkpt>
      <trkpt lat="48.455571" lon="8.038284">
        <ele>588.039588</ele>
        <time>2021-12-23T13:20:37.030Z</time>
      </trkpt>
      <trkpt lat="48.455638" lon="8.038390">
        <ele>588.384365</ele>
        <time>2021-12-23T13:20:45.027Z</time>
      </trkpt>
      <trkpt lat="48.455582" lon="8.038582">
        <ele>588.878221</ele>
        <time>2021-12-23T13:21:30.021Z</time>
      </trkpt>
      <trkpt lat="48.455588" lon="8.038717">
        <ele>589.196796</ele>
        <time>2021-12-23T13:22:08.027Z</time>
      </trkpt>
      <trkpt lat="48.455534" lon="8.038832">
        <ele>589.528566</ele>
        <time>2021-12-23T13:22:16.027Z</time>
      </trkpt>
      <trkpt lat="48.455474" lon="8.038948">
        <ele>589.874938</ele>
        <time>2021-12-23T13:22:24.029Z</time>
      </trkpt>
      <trkpt lat="48.455421" lon="8.039061">
        <ele>590.197450</ele>
        <time>2021-12-23T13:22:32.024Z</time>
      </trkpt>
      <trkpt lat="48.455355" lon="8.039164">
        <ele>589.629224</ele>
        <time>2021-12-23T13:22:39.025Z</time>
      </trkpt>
      <trkpt lat="48.455304" lon="8.039288">
        <ele>589.050337</ele>
        <time>2021-12-23T13:22:47.031Z</time>
      </trkpt>
      <trkpt lat="48.455233" lon="8.039390">
        <ele>588.463678</ele>
        <time>2021-12-23T13:22:55.027Z</time>
      </trkpt>
      <trkpt lat="48.455171" lon="8.039507">
        <ele>587.869506</ele>
        <time>2021-12-23T13:23:02.024Z</time>
      </trkpt>
      <trkpt lat="48.455120" lon="8.039619">
        <ele>587.330493</ele>
        <time>2021-12-23T13:23:09.027Z</time>
      </trkpt>
      <trkpt lat="48.455074" lon="8.039745">
        <ele>586.759857</ele>
        <time>2021-12-23T13:23:15.026Z</time>
      </trkpt>
      <trkpt lat="48.455039" lon="8.039884">
        <ele>586.169970</ele>
        <time>2021-12-23T13:23:23.033Z</time>
      </trkpt>
      <trkpt lat="48.455002" lon="8.040015">
        <ele>585.605062</ele>
        <time>2021-12-23T13:23:30.029Z</time>
      </trkpt>
      <trkpt lat="48.454981" lon="8.040164">
        <ele>585.000707</ele>
        <time>2021-12-23T13:23:37.026Z</time>
      </trkpt>
      <trkpt lat="48.454957" lon="8.040300">
        <ele>584.442356</ele>
        <time>2021-12-23T13:23:46.032Z</time>
      </trkpt>
      <trkpt lat="48.454945" lon="8.040452">
        <ele>583.835042</ele>
        <time>2021-12-23T13:23:54.044Z</time>
      </trkpt>
      <trkpt lat="48.454925" lon="8.040589">
        <ele>583.278486</ele>
        <time>2021-12-23T13:24:01.027Z</time>
      </trkpt>
      <trkpt lat="48.454939" lon="8.040725">
        <ele>582.732448</ele>
        <time>2021-12-23T13:24:08.021Z</time>
      </trkpt>
      <trkpt lat="48.454952" lon="8.040868">
        <ele>582.159794</ele>
        <time>2021-12-23T13:24:16.029Z</time>
      </trkpt>
      <trkpt lat="48.454994" lon="8.041008">
        <ele>581.550164</ele>
        <time>2021-12-23T13:24:22.026Z</time>
      </trkpt>
      <trkpt lat="48.455017" lon="8.041143">
        <ele>580.997165</ele>
        <time>2021-12-23T13:24:31.034Z</time>
      </trkpt>
      <trkpt lat="48.455047" lon="8.041284">
        <ele>580.409669</ele>
        <time>2021-12-23T13:24:40.023Z</time>
      </trkpt>
      <trkpt lat="48.455106" lon="8.041410">
        <ele>579.797724</ele>
        <time>2021-12-23T13:24:48.028Z</time>
      </trkpt>
      <trkpt lat="48.455190" lon="8.041481">
        <ele>579.372160</ele>
        <time>2021-12-23T13:24:57.028Z</time>
      </trkpt>
      <trkpt lat="48.455254" lon="8.041587">
        <ele>579.196105</ele>
        <time>2021-12-23T13:25:07.024Z</time>
      </trkpt>
      <trkpt lat="48.455315" lon="8.041709">
        <ele>579.008455</ele>
        <time>2021-12-23T13:25:15.024Z</time>
      </trkpt>
      <trkpt lat="48.455373" lon="8.041838">
        <ele>578.817045</ele>
        <time>2021-12-23T13:25:23.030Z</time>
      </trkpt>
      <trkpt lat="48.455403" lon="8.041972">
        <ele>578.643345</ele>
        <time>2021-12-23T13:25:30.024Z</time>
      </trkpt>
      <trkpt lat="48.455410" lon="8.042109">
        <ele>578.474587</ele>
        <time>2021-12-23T13:25:37.022Z</time>
      </trkpt>
      <trkpt lat="48.455391" lon="8.042261">
        <ele>578.284618</ele>
        <time>2021-12-23T13:25:44.027Z</time>
      </trkpt>
      <trkpt lat="48.455374" lon="8.042422">
        <ele>578.084392</ele>
        <time>2021-12-23T13:25:51.027Z</time>
      </trkpt>
      <trkpt lat="48.455352" lon="8.042579">
        <ele>577.887312</ele>
        <time>2021-12-23T13:25:58.024Z</time>
      </trkpt>
      <trkpt lat="48.455342" lon="8.042717">
        <ele>577.716815</ele>
        <time>2021-12-23T13:26:04.021Z</time>
      </trkpt>
      <trkpt lat="48.455331" lon="8.042879">
        <ele>577.516811</ele>
        <time>2021-12-23T13:26:13.022Z</time>
      </trkpt>
      <trkpt lat="48.455345" lon="8.043021">
        <ele>577.340494</ele>
        <time>2021-12-23T13:26:22.027Z</time>
      </trkpt>
      <trkpt lat="48.455319" lon="8.043160">
        <ele>577.163118</ele>
        <time>2021-12-23T13:26:32.025Z</time>
      </trkpt>
      <trkpt lat="48.455261" lon="8.043271">
        <ele>576.989562</ele>
        <time>2021-12-23T13:26:39.019Z</time>
      </trkpt>
      <trkpt lat="48.455212" lon="8.043387">
        <ele>576.820650</ele>
        <time>2021-12-23T13:26:47.025Z</time>
      </trkpt>
      <trkpt lat="48.455126" lon="8.043431">
        <ele>576.652469</ele>
        <time>2021-12-23T13:26:56.022Z</time>
      </trkpt>
      <trkpt lat="48.455050" lon="8.043518">
        <ele>576.475761</ele>
        <time>2021-12-23T13:27:03.023Z</time>
      </trkpt>
      <trkpt lat="48.454960" lon="8.043577">
        <ele>576.294021</ele>
        <time>2021-12-23T13:27:10.020Z</time>
      </trkpt>
      <trkpt lat="48.454875" lon="8.043642">
        <ele>576.117525</ele>
        <time>2021-12-23T13:27:17.020Z</time>
      </trkpt>
      <trkpt lat="48.454802" lon="8.043735">
        <ele>575.615296</ele>
        <time>2021-12-23T13:27:24.021Z</time>
      </trkpt>
      <trkpt lat="48.454723" lon="8.043808">
        <ele>575.111973</ele>
        <time>2021-12-23T13:27:30.024Z</time>
      </trkpt>
      <trkpt lat="48.454636" lon="8.043892">
        <ele>574.550779</ele>
        <time>2021-12-23T13:27:37.025Z</time>
      </trkpt>
      <trkpt lat="48.454591" lon="8.044014">
        <ele>574.047842</ele>
        <time>2021-12-23T13:27:44.020Z</time>
      </trkpt>
      <trkpt lat="48.454532" lon="8.044117">
        <ele>573.557513</ele>
        <time>2021-12-23T13:27:50.026Z</time>
      </trkpt>
      <trkpt lat="48.454482" lon="8.044249">
        <ele>573.009854</ele>
        <time>2021-12-23T13:27:57.029Z</time>
      </trkpt>
      <trkpt lat="48.454435" lon="8.044368">
        <ele>572.510863</ele>
        <time>2021-12-23T13:28:04.024Z</time>
      </trkpt>
      <trkpt lat="48.454389" lon="8.044496">
        <ele>571.986362</ele>
        <time>2021-12-23T13:28:11.022Z</time>
      </trkpt>
      <trkpt lat="48.454371" lon="8.044629">
        <ele>571.497323</ele>
        <time>2021-12-23T13:28:19.020Z</time>
      </trkpt>
      <trkpt lat="48.454329" lon="8.044764">
        <ele>570.960098</ele>
        <time>2021-12-23T13:28:25.028Z</time>
      </trkpt>
      <trkpt lat="48.454320" lon="8.044906">
        <ele>570.446177</ele>
        <time>2021-12-23T13:28:33.028Z</time>
      </trkpt>
      <trkpt lat="48.454325" lon="8.045050">
        <ele>569.926671</ele>
        <time>2021-12-23T13:28:41.026Z</time>
      </trkpt>
      <trkpt lat="48.454341" lon="8.045188">
        <ele>569.421952</ele>
        <time>2021-12-23T13:28:48.023Z</time>
      </trkpt>
      <trkpt lat="48.454353" lon="8.045326">
        <ele>568.920518</ele>
        <time>2021-12-23T13:28:56.027Z</time>
      </trkpt>
      <trkpt lat="48.454402" lon="8.045448">
        <ele>568.406668</ele>
        <time>2021-12-23T13:29:06.027Z</time>
      </trkpt>
      <trkpt lat="48.454419" lon="8.045582">
        <ele>567.915147</ele>
        <time>2021-12-23T13:29:13.030Z</time>
      </trkpt>
      <trkpt lat="48.454451" lon="8.045717">
        <ele>567.398646</ele>
        <time>2021-12-23T13:29:19.028Z</time>
      </trkpt>
      <trkpt lat="48.454471" lon="8.045862">
        <ele>566.865072</ele>
        <time>2021-12-23T13:29:26.027Z</time>
      </trkpt>
      <trkpt lat="48.454483" lon="8.045999">
        <ele>566.367211</ele>
        <time>2021-12-23T13:29:33.028Z</time>
      </trkpt>
      <trkpt lat="48.454514" lon="8.046136">
        <ele>565.868996</ele>
        <time>2021-12-23T13:29:43.027Z</time>
      </trkpt>
      <trkpt lat="48.454504" lon="8.046271">
        <ele>565.402755</ele>
        <time>2021-12-23T13:29:51.029Z</time>
      </trkpt>
      <trkpt lat="48.454507" lon="8.046422">
        <ele>564.884247</ele>
        <time>2021-12-23T13:29:58.021Z</time>
      </trkpt>
      <trkpt lat="48.454535" lon="8.046557">
        <ele>564.398758</ele>
        <time>2021-12-23T13:30:07.030Z</time>
      </trkpt>
      <trkpt lat="48.454566" lon="8.046688">
        <ele>563.921364</ele>
        <time>2021-12-23T13:30:14.024Z</time>
      </trkpt>
      <trkpt lat="48.454587" lon="8.046827">
        <ele>563.432054</ele>
        <time>2021-12-23T13:30:21.027Z</time>
      </trkpt>
      <trkpt lat="48.454634" lon="8.046955">
        <ele>562.929882</ele>
        <time>2021-12-23T13:30:29.024Z</time>
      </trkpt>
      <trkpt lat="48.454686" lon="8.047088">
        <ele>562.399969</ele>
        <time>2021-12-23T13:30:36.027Z</time>
      </trkpt>
      <trkpt lat="48.454686" lon="8.047243">
        <ele>561.867966</ele>
        <time>2021-12-23T13:30:44.024Z</time>
      </trkpt>
      <trkpt lat="48.454740" lon="8.047374">
        <ele>561.338565</ele>
        <time>2021-12-23T13:30:52.023Z</time>
      </trkpt>
      <trkpt lat="48.454757" lon="8.047522">
        <ele>560.823026</ele>
        <time>2021-12-23T13:30:58.026Z</time>
      </trkpt>
      <trkpt lat="48.454790" lon="8.047657">
        <ele>560.329198</ele>
        <time>2021-12-23T13:31:05.021Z</time>
      </trkpt>
      <trkpt lat="48.454815" lon="8.047794">
        <ele>559.841502</ele>
        <time>2021-12-23T13:31:11.022Z</time>
      </trkpt>
      <trkpt lat="48.454817" lon="8.047944">
        <ele>559.326558</ele>
        <time>2021-12-23T13:31:18.025Z</time>
      </trkpt>
      <trkpt lat="48.454804" lon="8.048094">
        <ele>558.807340</ele>
        <time>2021-12-23T13:31:25.026Z</time>
      </trkpt>
      <trkpt lat="48.454812" lon="8.048237">
        <ele>558.314782</ele>
        <time>2021-12-23T13:31:32.032Z</time>
      </trkpt>
      <trkpt lat="48.454812" lon="8.048376">
        <ele>557.837696</ele>
        <time>2021-12-23T13:31:39.031Z</time>
      </trkpt>
      <trkpt lat="48.454793" lon="8.048686">
        <ele>556.976153</ele>
        <time>2021-12-23T13:32:03.031Z</time>
      </trkpt>
      <trkpt lat="48.454759" lon="8.048811">
        <ele>556.880810</ele>
        <time>2021-12-23T13:33:25.028Z</time>
      </trkpt>
      <trkpt lat="48.454664" lon="8.048820">
        <ele>556.779524</ele>
        <time>2021-12-23T13:34:10.027Z</time>
      </trkpt>
      <trkpt lat="48.454511" lon="8.048845">
        <ele>556.615767</ele>
        <time>2021-12-23T13:35:53.031Z</time>
      </trkpt>
      <trkpt lat="48.454416" lon="8.048847">
        <ele>556.514670</ele>
        <time>2021-12-23T13:36:04.026Z</time>
      </trkpt>
      <trkpt lat="48.454329" lon="8.048806">
        <ele>556.417680</ele>
        <time>2021-12-23T13:36:12.033Z</time>
      </trkpt>
      <trkpt lat="48.454235" lon="8.048763">
        <ele>556.313155</ele>
        <time>2021-12-23T13:36:20.027Z</time>
      </trkpt>
      <trkpt lat="48.454143" lon="8.048733">
        <ele>556.212997</ele>
        <time>2021-12-23T13:36:28.031Z</time>
      </trkpt>
      <trkpt lat="48.454048" lon="8.048692">
        <ele>556.107851</ele>
        <time>2021-12-23T13:36:34.025Z</time>
      </trkpt>
      <trkpt lat="48.453951" lon="8.048631">
        <ele>555.996018</ele>
        <time>2021-12-23T13:36:44.023Z</time>
      </trkpt>
      <trkpt lat="48.453856" lon="8.048623">
        <ele>555.894774</ele>
        <time>2021-12-23T13:36:52.027Z</time>
      </trkpt>
      <trkpt lat="48.453781" lon="8.048537">
        <ele>555.794512</ele>
        <time>2021-12-23T13:37:04.029Z</time>
      </trkpt>
      <trkpt lat="48.453692" lon="8.048508">
        <ele>555.697624</ele>
        <time>2021-12-23T13:37:12.029Z</time>
      </trkpt>
      <trkpt lat="48.453602" lon="8.048453">
        <ele>555.594290</ele>
        <time>2021-12-23T13:37:21.030Z</time>
      </trkpt>
      <trkpt lat="48.453503" lon="8.048439">
        <ele>555.488485</ele>
        <time>2021-12-23T13:37:33.024Z</time>
      </trkpt>
      <trkpt lat="48.453409" lon="8.048439">
        <ele>555.388462</ele>
        <time>2021-12-23T13:37:41.031Z</time>
      </trkpt>
      <trkpt lat="48.453310" lon="8.048407">
        <ele>555.280725</ele>
        <time>2021-12-23T13:37:50.023Z</time>
      </trkpt>
      <trkpt lat="48.453219" lon="8.048346">
        <ele>555.174756</ele>
        <time>2021-12-23T13:37:57.030Z</time>
      </trkpt>
      <trkpt lat="48.453128" lon="8.048286">
        <ele>554.450462</ele>
        <time>2021-12-23T13:38:07.027Z</time>
      </trkpt>
      <trkpt lat="48.453036" lon="8.048218">
        <ele>552.899405</ele>
        <time>2021-12-23T13:38:16.028Z</time>
      </trkpt>
      <trkpt lat="48.452945" lon="8.048189">
        <ele>551.491394</ele>
        <time>2021-12-23T13:38:25.029Z</time>
      </trkpt>
      <trkpt lat="48.452847" lon="8.048163">
        <ele>549.985058</ele>
        <time>2021-12-23T13:38:33.026Z</time>
      </trkpt>
      <trkpt lat="48.452745" lon="8.048144">
        <ele>548.429222</ele>
        <time>2021-12-23T13:38:39.025Z</time>
      </trkpt>
      <trkpt lat="48.452655" lon="8.048097">
        <ele>546.987376</ele>
        <time>2021-12-23T13:38:49.026Z</time>
      </trkpt>
      <trkpt lat="48.452576" lon="8.048030">
        <ele>545.615246</ele>
        <time>2021-12-23T13:38:55.028Z</time>
      </trkpt>
      <trkpt lat="48.452478" lon="8.047982">
        <ele>544.055386</ele>
        <time>2021-12-23T13:39:03.029Z</time>
      </trkpt>
      <trkpt lat="48.452394" lon="8.047931">
        <ele>542.684550</ele>
        <time>2021-12-23T13:39:13.031Z</time>
      </trkpt>
      <trkpt lat="48.452301" lon="8.047911">
        <ele>541.262449</ele>
        <time>2021-12-23T13:39:19.031Z</time>
      </trkpt>
      <trkpt lat="48.452201" lon="8.047855">
        <ele>539.647584</ele>
        <time>2021-12-23T13:39:26.029Z</time>
      </trkpt>
      <trkpt lat="48.452125" lon="8.047747">
        <ele>538.066607</ele>
        <time>2021-12-23T13:39:34.032Z</time>
      </trkpt>
      <trkpt lat="48.452167" lon="8.047624">
        <ele>536.677586</ele>
        <time>2021-12-23T13:39:46.031Z</time>
      </trkpt>
      <trkpt lat="48.452262" lon="8.047596">
        <ele>535.212236</ele>
        <time>2021-12-23T13:39:58.030Z</time>
      </trkpt>
      <trkpt lat="48.452356" lon="8.047632">
        <ele>533.744057</ele>
        <time>2021-12-23T13:40:10.032Z</time>
      </trkpt>
      <trkpt lat="48.452441" lon="8.047679">
        <ele>532.373508</ele>
        <time>2021-12-23T13:40:19.036Z</time>
      </trkpt>
      <trkpt lat="48.452538" lon="8.047662">
        <ele>530.895215</ele>
        <time>2021-12-23T13:40:29.024Z</time>
      </trkpt>
      <trkpt lat="48.452624" lon="8.047618">
        <ele>529.520418</ele>
        <time>2021-12-23T13:40:38.046Z</time>
      </trkpt>
      <trkpt lat="48.452716" lon="8.047595">
        <ele>528.108688</ele>
        <time>2021-12-23T13:40:50.027Z</time>
      </trkpt>
      <trkpt lat="48.452819" lon="8.047547">
        <ele>526.693676</ele>
        <time>2021-12-23T13:40:57.028Z</time>
      </trkpt>
      <trkpt lat="48.452922" lon="8.047520">
        <ele>525.354459</ele>
        <time>2021-12-23T13:41:05.024Z</time>
      </trkpt>
      <trkpt lat="48.453021" lon="8.047511">
        <ele>524.083972</ele>
        <time>2021-12-23T13:41:13.022Z</time>
      </trkpt>
      <trkpt lat="48.453116" lon="8.047448">
        <ele>522.754519</ele>
        <time>2021-12-23T13:41:20.024Z</time>
      </trkpt>
      <trkpt lat="48.453208" lon="8.047421">
        <ele>521.553887</ele>
        <time>2021-12-23T13:41:24.027Z</time>
      </trkpt>
      <trkpt lat="48.453296" lon="8.047332">
        <ele>520.196501</ele>
        <time>2021-12-23T13:41:33.022Z</time>
      </trkpt>
      <trkpt lat="48.453387" lon="8.047257">
        <ele>518.868011</ele>
        <time>2021-12-23T13:41:39.023Z</time>
      </trkpt>
      <trkpt lat="48.453444" lon="8.047129">
        <ele>517.558144</ele>
        <time>2021-12-23T13:41:48.023Z</time>
      </trkpt>
      <trkpt lat="48.453399" lon="8.047011">
        <ele>516.401712</ele>
        <time>2021-12-23T13:41:54.024Z</time>
      </trkpt>
      <trkpt lat="48.453374" lon="8.046866">
        <ele>515.128856</ele>
        <time>2021-12-23T13:42:02.026Z</time>
      </trkpt>
      <trkpt lat="48.453312" lon="8.046750">
        <ele>513.863137</ele>
        <time>2021-12-23T13:42:09.020Z</time>
      </trkpt>
      <trkpt lat="48.453239" lon="8.046642">
        <ele>512.553029</ele>
        <time>2021-12-23T13:42:16.028Z</time>
      </trkpt>
      <trkpt lat="48.453215" lon="8.046498">
        <ele>511.291574</ele>
        <time>2021-12-23T13:42:24.026Z</time>
      </trkpt>
      <trkpt lat="48.453154" lon="8.046391">
        <ele>510.092824</ele>
        <time>2021-12-23T13:42:34.024Z</time>
      </trkpt>
      <trkpt lat="48.453103" lon="8.046276">
        <ele>508.917490</ele>
        <time>2021-12-23T13:42:43.026Z</time>
      </trkpt>
      <trkpt lat="48.453064" lon="8.046140">
        <ele>507.658657</ele>
        <time>2021-12-23T13:43:06.023Z</time>
      </trkpt>
      <trkpt lat="48.453046" lon="8.045997">
        <ele>506.422044</ele>
        <time>2021-12-23T13:43:15.031Z</time>
      </trkpt>
      <trkpt lat="48.453027" lon="8.046152">
        <ele>505.082863</ele>
        <time>2021-12-23T13:43:49.027Z</time>
      </trkpt>
      <trkpt lat="48.453049" lon="8.046284">
        <ele>504.238714</ele>
        <time>2021-12-23T13:43:56.028Z</time>
      </trkpt>
      <trkpt lat="48.453074" lon="8.046427">
        <ele>503.408377</ele>
        <time>2021-12-23T13:44:06.024Z</time>
      </trkpt>
      <trkpt lat="48.453091" lon="8.046578">
        <ele>502.548419</ele>
        <time>2021-12-23T13:44:13.026Z</time>
      </trkpt>
      <trkpt lat="48.453083" lon="8.046717">
        <ele>501.765033</ele>
        <time>2021-12-23T13:44:18.024Z</time>
      </trkpt>
      <trkpt lat="48.453018" lon="8.046824">
        <ele>500.950332</ele>
        <time>2021-12-23T13:44:26.025Z</time>
      </trkpt>
      <trkpt lat="48.452922" lon="8.046869">
        <ele>500.099251</ele>
        <time>2021-12-23T13:44:34.025Z</time>
      </trkpt>
      <trkpt lat="48.452830" lon="8.046907">
        <ele>499.291705</ele>
        <time>2021-12-23T13:44:40.024Z</time>
      </trkpt>
      <trkpt lat="48.452732" lon="8.046891">
        <ele>498.457212</ele>
        <time>2021-12-23T13:44:48.027Z</time>
      </trkpt>
      <trkpt lat="48.452638" lon="8.046885">
        <ele>497.660719</ele>
        <time>2021-12-23T13:44:55.020Z</time>
      </trkpt>
      <trkpt lat="48.452553" lon="8.046844">
        <ele>496.905204</ele>
        <time>2021-12-23T13:45:02.023Z</time>
      </trkpt>
      <trkpt lat="48.452461" lon="8.046798">
        <ele>496.084646</ele>
        <time>2021-12-23T13:45:10.026Z</time>
      </trkpt>
      <trkpt lat="48.452366" lon="8.046739">
        <ele>495.214844</ele>
        <time>2021-12-23T13:45:19.030Z</time>
      </trkpt>
      <trkpt lat="48.452275" lon="8.046704">
        <ele>494.419790</ele>
        <time>2021-12-23T13:45:26.023Z</time>
      </trkpt>
      <trkpt lat="48.452179" lon="8.046674">
        <ele>493.589806</ele>
        <time>2021-12-23T13:45:33.020Z</time>
      </trkpt>
      <trkpt lat="48.452083" lon="8.046640">
        <ele>492.754973</ele>
        <time>2021-12-23T13:45:40.023Z</time>
      </trkpt>
      <trkpt lat="48.451991" lon="8.046606">
        <ele>491.953069</ele>
        <time>2021-12-23T13:45:49.021Z</time>
      </trkpt>
      <trkpt lat="48.451901" lon="8.046583">
        <ele>491.180284</ele>
        <time>2021-12-23T13:45:58.026Z</time>
      </trkpt>
      <trkpt lat="48.451806" lon="8.046560">
        <ele>490.365735</ele>
        <time>2021-12-23T13:46:06.026Z</time>
      </trkpt>
      <trkpt lat="48.451712" lon="8.046562">
        <ele>489.526314</ele>
        <time>2021-12-23T13:46:14.024Z</time>
      </trkpt>
      <trkpt lat="48.451623" lon="8.046593">
        <ele>488.084033</ele>
        <time>2021-12-23T13:46:41.024Z</time>
      </trkpt>
      <trkpt lat="48.451532" lon="8.046570">
        <ele>486.627135</ele>
        <time>2021-12-23T13:46:58.024Z</time>
      </trkpt>
      <trkpt lat="48.451439" lon="8.046544">
        <ele>485.133677</ele>
        <time>2021-12-23T13:47:13.025Z</time>
      </trkpt>
      <trkpt lat="48.451335" lon="8.046474">
        <ele>483.335363</ele>
        <time>2021-12-23T13:47:56.031Z</time>
      </trkpt>
      <trkpt lat="48.451245" lon="8.046495">
        <ele>481.897387</ele>
        <time>2021-12-23T13:48:07.026Z</time>
      </trkpt>
      <trkpt lat="48.451149" lon="8.046481">
        <ele>480.374517</ele>
        <time>2021-12-23T13:48:19.029Z</time>
      </trkpt>
      <trkpt lat="48.451058" lon="8.046458">
        <ele>478.917619</ele>
        <time>2021-12-23T13:48:28.028Z</time>
      </trkpt>
      <trkpt lat="48.450958" lon="8.046507">
        <ele>477.257370</ele>
        <time>2021-12-23T13:48:35.029Z</time>
      </trkpt>
      <trkpt lat="48.450862" lon="8.046561">
        <ele>475.639516</ele>
        <time>2021-12-23T13:48:43.032Z</time>
      </trkpt>
      <trkpt lat="48.450778" lon="8.046624">
        <ele>474.158155</ele>
        <time>2021-12-23T13:48:53.026Z</time>
      </trkpt>
      <trkpt lat="48.450721" lon="8.046738">
        <ele>472.663044</ele>
        <time>2021-12-23T13:49:10.026Z</time>
      </trkpt>
      <trkpt lat="48.450679" lon="8.046866">
        <ele>471.167479</ele>
        <time>2021-12-23T13:49:25.030Z</time>
      </trkpt>
      <trkpt lat="48.450618" lon="8.046758">
        <ele>469.681899</ele>
        <time>2021-12-23T13:50:41.024Z</time>
      </trkpt>
      <trkpt lat="48.450571" lon="8.046632">
        <ele>468.167980</ele>
        <time>2021-12-23T13:50:50.024Z</time>
      </trkpt>
      <trkpt lat="48.450553" lon="8.046492">
        <ele>466.674514</ele>
        <time>2021-12-23T13:50:59.031Z</time>
      </trkpt>
      <trkpt lat="48.450549" lon="8.046352">
        <ele>465.206980</ele>
        <time>2021-12-23T13:51:09.029Z</time>
      </trkpt>
      <trkpt lat="48.450620" lon="8.046257">
        <ele>463.708113</ele>
        <time>2021-12-23T13:51:17.026Z</time>
      </trkpt>
      <trkpt lat="48.450690" lon="8.046156">
        <ele>462.178268</ele>
        <time>2021-12-23T13:51:26.026Z</time>
      </trkpt>
      <trkpt lat="48.450755" lon="8.046042">
        <ele>460.591537</ele>
        <time>2021-12-23T13:51:35.025Z</time>
      </trkpt>
      <trkpt lat="48.450825" lon="8.045937">
        <ele>459.001215</ele>
        <time>2021-12-23T13:51:44.028Z</time>
      </trkpt>
      <trkpt lat="48.450868" lon="8.045818">
        <ele>457.553609</ele>
        <time>2021-12-23T13:51:53.027Z</time>
      </trkpt>
      <trkpt lat="48.450940" lon="8.045727">
        <ele>456.040445</ele>
        <time>2021-12-23T13:52:03.034Z</time>
      </trkpt>
      <trkpt lat="48.451029" lon="8.045657">
        <ele>454.423716</ele>
        <time>2021-12-23T13:52:10.029Z</time>
      </trkpt>
      <trkpt lat="48.451093" lon="8.045559">
        <ele>452.954565</ele>
        <time>2021-12-23T13:52:17.024Z</time>
      </trkpt>
      <trkpt lat="48.451165" lon="8.045458">
        <ele>451.370662</ele>
        <time>2021-12-23T13:52:28.026Z</time>
      </trkpt>
      <trkpt lat="48.451249" lon="8.045366">
        <ele>449.698501</ele>
        <time>2021-12-23T13:52:37.027Z</time>
      </trkpt>
      <trkpt lat="48.451181" lon="8.045273">
        <ele>448.219858</ele>
        <time>2021-12-23T13:53:05.026Z</time>
      </trkpt>
      <trkpt lat="48.451087" lon="8.045256">
        <ele>446.695066</ele>
        <time>2021-12-23T13:53:16.023Z</time>
      </trkpt>
      <trkpt lat="48.450995" lon="8.045236">
        <ele>445.198015</ele>
        <time>2021-12-23T13:53:28.024Z</time>
      </trkpt>
      <trkpt lat="48.450904" lon="8.045227">
        <ele>443.729243</ele>
        <time>2021-12-23T13:53:36.027Z</time>
      </trkpt>
      <trkpt lat="48.450808" lon="8.045282">
        <ele>442.075226</ele>
        <time>2021-12-23T13:53:44.027Z</time>
      </trkpt>
      <trkpt lat="48.450732" lon="8.045359">
        <ele>440.600493</ele>
        <time>2021-12-23T13:53:53.021Z</time>
      </trkpt>
      <trkpt lat="48.450637" lon="8.045397">
        <ele>439.017515</ele>
        <time>2021-12-23T13:54:02.023Z</time>
      </trkpt>
      <trkpt lat="48.450551" lon="8.045445">
        <ele>437.540558</ele>
        <time>2021-12-23T13:54:09.027Z</time>
      </trkpt>
      <trkpt lat="48.450471" lon="8.045512">
        <ele>436.066658</ele>
        <time>2021-12-23T13:54:16.025Z</time>
      </trkpt>
      <trkpt lat="48.450371" lon="8.045550">
        <ele>434.405715</ele>
        <time>2021-12-23T13:54:24.028Z</time>
      </trkpt>
      <trkpt lat="48.450276" lon="8.045578">
        <ele>432.846708</ele>
        <time>2021-12-23T13:54:32.025Z</time>
      </trkpt>
      <trkpt lat="48.450199" lon="8.045671">
        <ele>431.775728</ele>
        <time>2021-12-23T13:54:42.024Z</time>
      </trkpt>
      <trkpt lat="48.450093" lon="8.045686">
        <ele>430.954378</ele>
        <time>2021-12-23T13:54:50.026Z</time>
      </trkpt>
      <trkpt lat="48.449994" lon="8.045729">
        <ele>430.159563</ele>
        <time>2021-12-23T13:54:56.025Z</time>
      </trkpt>
      <trkpt lat="48.449893" lon="8.045786">
        <ele>429.327580</ele>
        <time>2021-12-23T13:55:02.038Z</time>
      </trkpt>
      <trkpt lat="48.449798" lon="8.045810">
        <ele>428.584468</ele>
        <time>2021-12-23T13:55:09.032Z</time>
      </trkpt>
      <trkpt lat="48.449710" lon="8.045889">
        <ele>427.794339</ele>
        <time>2021-12-23T13:55:16.027Z</time>
      </trkpt>
      <trkpt lat="48.449684" lon="8.046024">
        <ele>427.075016</ele>
        <time>2021-12-23T13:55:22.023Z</time>
      </trkpt>
      <trkpt lat="48.449698" lon="8.046171">
        <ele>426.315107</ele>
        <time>2021-12-23T13:55:29.030Z</time>
      </trkpt>
      <trkpt lat="48.449728" lon="8.046315">
        <ele>425.542770</ele>
        <time>2021-12-23T13:55:37.035Z</time>
      </trkpt>
      <trkpt lat="48.449747" lon="8.046449">
        <ele>424.841604</ele>
        <time>2021-12-23T13:55:44.027Z</time>
      </trkpt>
      <trkpt lat="48.449769" lon="8.046592">
        <ele>424.090453</ele>
        <time>2021-12-23T13:55:52.028Z</time>
      </trkpt>
      <trkpt lat="48.449780" lon="8.046730">
        <ele>423.379231</ele>
        <time>2021-12-23T13:55:59.025Z</time>
      </trkpt>
      <trkpt lat="48.449809" lon="8.046868">
        <ele>422.638496</ele>
        <time>2021-12-23T13:56:07.036Z</time>
      </trkpt>
      <trkpt lat="48.449818" lon="8.047011">
        <ele>421.903484</ele>
        <time>2021-12-23T13:56:17.026Z</time>
      </trkpt>
      <trkpt lat="48.449829" lon="8.047148">
        <ele>421.197343</ele>
        <time>2021-12-23T13:56:25.027Z</time>
      </trkpt>
      <trkpt lat="48.449831" lon="8.047289">
        <ele>420.475687</ele>
        <time>2021-12-23T13:56:34.029Z</time>
      </trkpt>
      <trkpt lat="48.449791" lon="8.047422">
        <ele>419.728437</ele>
        <time>2021-12-23T13:56:47.026Z</time>
      </trkpt>
      <trkpt lat="48.449726" lon="8.047246">
        <ele>418.697655</ele>
        <time>2021-12-23T13:57:58.032Z</time>
      </trkpt>
      <trkpt lat="48.449677" lon="8.047121">
        <ele>417.706712</ele>
        <time>2021-12-23T13:58:09.030Z</time>
      </trkpt>
      <trkpt lat="48.449613" lon="8.047011">
        <ele>416.517361</ele>
        <time>2021-12-23T13:58:16.026Z</time>
      </trkpt>
      <trkpt lat="48.449558" lon="8.046881">
        <ele>415.264026</ele>
        <time>2021-12-23T13:58:24.023Z</time>
      </trkpt>
      <trkpt lat="48.449527" lon="8.046740">
        <ele>414.056618</ele>
        <time>2021-12-23T13:58:32.029Z</time>
      </trkpt>
      <trkpt lat="48.449490" lon="8.046592">
        <ele>412.771018</ele>
        <time>2021-12-23T13:58:40.027Z</time>
      </trkpt>
      <trkpt lat="48.449461" lon="8.046449">
        <ele>411.555557</ele>
        <time>2021-12-23T13:58:48.028Z</time>
      </trkpt>
      <trkpt lat="48.449398" lon="8.046335">
        <ele>410.349452</ele>
        <time>2021-12-23T13:58:55.029Z</time>
      </trkpt>
      <trkpt lat="48.449348" lon="8.046222">
        <ele>409.245332</ele>
        <time>2021-12-23T13:59:03.032Z</time>
      </trkpt>
      <trkpt lat="48.449277" lon="8.046107">
        <ele>407.968299</ele>
        <time>2021-12-23T13:59:10.032Z</time>
      </trkpt>
      <trkpt lat="48.449209" lon="8.046003">
        <ele>406.781274</ele>
        <time>2021-12-23T13:59:18.031Z</time>
      </trkpt>
      <trkpt lat="48.449147" lon="8.045902">
        <ele>405.662677</ele>
        <time>2021-12-23T13:59:25.027Z</time>
      </trkpt>
      <trkpt lat="48.449078" lon="8.045800">
        <ele>404.478453</ele>
        <time>2021-12-23T13:59:34.024Z</time>
      </trkpt>
      <trkpt lat="48.449004" lon="8.045716">
        <ele>403.343305</ele>
        <time>2021-12-23T13:59:41.027Z</time>
      </trkpt>
      <trkpt lat="48.448937" lon="8.045614">
        <ele>402.176454</ele>
        <time>2021-12-23T13:59:51.029Z</time>
      </trkpt>
      <trkpt lat="48.448861" lon="8.045530">
        <ele>401.021630</ele>
        <time>2021-12-23T13:59:58.030Z</time>
      </trkpt>
      <trkpt lat="48.448774" lon="8.045457">
        <ele>399.801474</ele>
        <time>2021-12-23T14:00:08.026Z</time>
      </trkpt>
      <trkpt lat="48.448708" lon="8.045347">
        <ele>398.595808</ele>
        <time>2021-12-23T14:00:15.026Z</time>
      </trkpt>
      <trkpt lat="48.448633" lon="8.045263">
        <ele>397.450843</ele>
        <time>2021-12-23T14:00:21.024Z</time>
      </trkpt>
      <trkpt lat="48.448565" lon="8.045174">
        <ele>396.347316</ele>
        <time>2021-12-23T14:00:30.022Z</time>
      </trkpt>
      <trkpt lat="48.448460" lon="8.045113">
        <ele>395.276941</ele>
        <time>2021-12-23T14:01:19.027Z</time>
      </trkpt>
      <trkpt lat="48.448371" lon="8.045059">
        <ele>394.366880</ele>
        <time>2021-12-23T14:01:28.027Z</time>
      </trkpt>
      <trkpt lat="48.448273" lon="8.045035">
        <ele>393.425066</ele>
        <time>2021-12-23T14:01:37.029Z</time>
      </trkpt>
      <trkpt lat="48.448178" lon="8.045011">
        <ele>392.511330</ele>
        <time>2021-12-23T14:01:43.027Z</time>
      </trkpt>
      <trkpt lat="48.448085" lon="8.045001">
        <ele>391.626890</ele>
        <time>2021-12-23T14:01:49.030Z</time>
      </trkpt>
      <trkpt lat="48.447993" lon="8.045003">
        <ele>390.754086</ele>
        <time>2021-12-23T14:01:57.029Z</time>
      </trkpt>
      <trkpt lat="48.447901" lon="8.045003">
        <ele>389.881373</ele>
        <time>2021-12-23T14:02:04.028Z</time>
      </trkpt>
      <trkpt lat="48.447811" lon="8.044955">
        <ele>388.975785</ele>
        <time>2021-12-23T14:02:11.025Z</time>
      </trkpt>
      <trkpt lat="48.447714" lon="8.044942">
        <ele>388.052013</ele>
        <time>2021-12-23T14:02:18.027Z</time>
      </trkpt>
      <trkpt lat="48.447621" lon="8.044921">
        <ele>387.159974</ele>
        <time>2021-12-23T14:02:24.023Z</time>
      </trkpt>
      <trkpt lat="48.447527" lon="8.044918">
        <ele>386.268089</ele>
        <time>2021-12-23T14:02:30.025Z</time>
      </trkpt>
      <trkpt lat="48.447430" lon="8.044894">
        <ele>385.335636</ele>
        <time>2021-12-23T14:02:37.025Z</time>
      </trkpt>
      <trkpt lat="48.447337" lon="8.044908">
        <ele>384.449050</ele>
        <time>2021-12-23T14:02:44.027Z</time>
      </trkpt>
      <trkpt lat="48.447251" lon="8.044991">
        <ele>383.480407</ele>
        <time>2021-12-23T14:02:51.026Z</time>
      </trkpt>
      <trkpt lat="48.447172" lon="8.045086">
        <ele>382.521812</ele>
        <time>2021-12-23T14:02:58.026Z</time>
      </trkpt>
      <trkpt lat="48.447078" lon="8.045120">
        <ele>381.604822</ele>
        <time>2021-12-23T14:03:05.027Z</time>
      </trkpt>
      <trkpt lat="48.447002" lon="8.045208">
        <ele>380.695786</ele>
        <time>2021-12-23T14:03:12.024Z</time>
      </trkpt>
      <trkpt lat="48.446917" lon="8.045296">
        <ele>379.717657</ele>
        <time>2021-12-23T14:03:19.026Z</time>
      </trkpt>
      <trkpt lat="48.446823" lon="8.045317">
        <ele>378.718284</ele>
        <time>2021-12-23T14:03:26.030Z</time>
      </trkpt>
      <trkpt lat="48.446721" lon="8.045334">
        <ele>377.535736</ele>
        <time>2021-12-23T14:03:34.022Z</time>
      </trkpt>
      <trkpt lat="48.446622" lon="8.045347">
        <ele>376.390600</ele>
        <time>2021-12-23T14:03:42.025Z</time>
      </trkpt>
      <trkpt lat="48.446526" lon="8.045362">
        <ele>375.278428</ele>
        <time>2021-12-23T14:03:49.027Z</time>
      </trkpt>
      <trkpt lat="48.446428" lon="8.045359">
        <ele>374.148902</ele>
        <time>2021-12-23T14:03:57.025Z</time>
      </trkpt>
      <trkpt lat="48.446336" lon="8.045363">
        <ele>373.088308</ele>
        <time>2021-12-23T14:04:05.025Z</time>
      </trkpt>
      <trkpt lat="48.446248" lon="8.045406">
        <ele>372.022313</ele>
        <time>2021-12-23T14:04:12.032Z</time>
      </trkpt>
      <trkpt lat="48.446151" lon="8.045417">
        <ele>370.901385</ele>
        <time>2021-12-23T14:04:19.027Z</time>
      </trkpt>
      <trkpt lat="48.446058" lon="8.045466">
        <ele>369.766144</ele>
        <time>2021-12-23T14:04:26.028Z</time>
      </trkpt>
      <trkpt lat="48.445966" lon="8.045504">
        <ele>368.666920</ele>
        <time>2021-12-23T14:04:34.028Z</time>
      </trkpt>
      <trkpt lat="48.445882" lon="8.045553">
        <ele>367.629018</ele>
        <time>2021-12-23T14:04:41.028Z</time>
      </trkpt>
      <trkpt lat="48.445785" lon="8.045548">
        <ele>366.510595</ele>
        <time>2021-12-23T14:04:48.027Z</time>
      </trkpt>
      <trkpt lat="48.445693" lon="8.045559">
        <ele>365.447113</ele>
        <time>2021-12-23T14:04:57.029Z</time>
      </trkpt>
      <trkpt lat="48.445603" lon="8.045575">
        <ele>364.402820</ele>
        <time>2021-12-23T14:05:03.028Z</time>
      </trkpt>
      <trkpt lat="48.445504" lon="8.045574">
        <ele>363.261978</ele>
        <time>2021-12-23T14:05:11.026Z</time>
      </trkpt>
      <trkpt lat="48.445405" lon="8.045597">
        <ele>362.107694</ele>
        <time>2021-12-23T14:05:25.025Z</time>
      </trkpt>
      <trkpt lat="48.445312" lon="8.045600">
        <ele>361.035773</ele>
        <time>2021-12-23T14:05:33.022Z</time>
      </trkpt>
      <trkpt lat="48.445224" lon="8.045626">
        <ele>360.002422</ele>
        <time>2021-12-23T14:05:40.023Z</time>
      </trkpt>
      <trkpt lat="48.445124" lon="8.045615">
        <ele>358.847019</ele>
        <time>2021-12-23T14:05:47.024Z</time>
      </trkpt>
      <trkpt lat="48.445027" lon="8.045649">
        <ele>358.220908</ele>
        <time>2021-12-23T14:05:55.030Z</time>
      </trkpt>
      <trkpt lat="48.444929" lon="8.045666">
        <ele>357.784544</ele>
        <time>2021-12-23T14:06:02.026Z</time>
      </trkpt>
      <trkpt lat="48.444834" lon="8.045678">
        <ele>357.362839</ele>
        <time>2021-12-23T14:06:09.027Z</time>
      </trkpt>
      <trkpt lat="48.444732" lon="8.045681">
        <ele>356.911556</ele>
        <time>2021-12-23T14:06:17.021Z</time>
      </trkpt>
      <trkpt lat="48.444634" lon="8.045706">
        <ele>356.471890</ele>
        <time>2021-12-23T14:06:25.035Z</time>
      </trkpt>
      <trkpt lat="48.444541" lon="8.045770">
        <ele>356.019667</ele>
        <time>2021-12-23T14:06:32.026Z</time>
      </trkpt>
      <trkpt lat="48.444448" lon="8.045821">
        <ele>355.581908</ele>
        <time>2021-12-23T14:06:41.033Z</time>
      </trkpt>
      <trkpt lat="48.444359" lon="8.045891">
        <ele>355.137855</ele>
        <time>2021-12-23T14:06:48.023Z</time>
      </trkpt>
      <trkpt lat="48.444287" lon="8.045976">
        <ele>354.733323</ele>
        <time>2021-12-23T14:06:56.026Z</time>
      </trkpt>
      <trkpt lat="48.444188" lon="8.045996">
        <ele>354.291481</ele>
        <time>2021-12-23T14:07:03.031Z</time>
      </trkpt>
      <trkpt lat="48.444087" lon="8.046036">
        <ele>353.829547</ele>
        <time>2021-12-23T14:07:09.032Z</time>
      </trkpt>
      <trkpt lat="48.443994" lon="8.046049">
        <ele>353.416396</ele>
        <time>2021-12-23T14:07:15.035Z</time>
      </trkpt>
      <trkpt lat="48.443892" lon="8.046080">
        <ele>352.956121</ele>
        <time>2021-12-23T14:07:23.036Z</time>
      </trkpt>
      <trkpt lat="48.443795" lon="8.046123">
        <ele>352.508874</ele>
        <time>2021-12-23T14:07:31.026Z</time>
      </trkpt>
      <trkpt lat="48.443699" lon="8.046134">
        <ele>352.082993</ele>
        <time>2021-12-23T14:07:37.032Z</time>
      </trkpt>
      <trkpt lat="48.443606" lon="8.046138">
        <ele>351.671440</ele>
        <time>2021-12-23T14:07:44.039Z</time>
      </trkpt>
      <trkpt lat="48.443503" lon="8.046120">
        <ele>351.212768</ele>
        <time>2021-12-23T14:07:50.035Z</time>
      </trkpt>
      <trkpt lat="48.443410" lon="8.046073">
        <ele>350.778880</ele>
        <time>2021-12-23T14:07:58.027Z</time>
      </trkpt>
      <trkpt lat="48.443324" lon="8.046018">
        <ele>350.251383</ele>
        <time>2021-12-23T14:08:05.029Z</time>
      </trkpt>
      <trkpt lat="48.443237" lon="8.045936">
        <ele>349.565858</ele>
        <time>2021-12-23T14:08:13.027Z</time>
      </trkpt>
      <trkpt lat="48.443156" lon="8.045859">
        <ele>348.926065</ele>
        <time>2021-12-23T14:08:20.033Z</time>
      </trkpt>
      <trkpt lat="48.443074" lon="8.045792">
        <ele>348.302909</ele>
        <time>2021-12-23T14:08:26.030Z</time>
      </trkpt>
      <trkpt lat="48.442983" lon="8.045728">
        <ele>347.632009</ele>
        <time>2021-12-23T14:08:34.022Z</time>
      </trkpt>
      <trkpt lat="48.442899" lon="8.045673">
        <ele>347.020137</ele>
        <time>2021-12-23T14:08:41.031Z</time>
      </trkpt>
      <trkpt lat="48.442809" lon="8.045624">
        <ele>346.380815</ele>
        <time>2021-12-23T14:08:48.037Z</time>
      </trkpt>
      <trkpt lat="48.442717" lon="8.045613">
        <ele>345.764216</ele>
        <time>2021-12-23T14:08:55.036Z</time>
      </trkpt>
      <trkpt lat="48.442635" lon="8.045550">
        <ele>345.149309</ele>
        <time>2021-12-23T14:09:03.035Z</time>
      </trkpt>
      <trkpt lat="48.442559" lon="8.045477">
        <ele>344.547221</ele>
        <time>2021-12-23T14:09:10.027Z</time>
      </trkpt>
      <trkpt lat="48.442490" lon="8.045387">
        <ele>343.937602</ele>
        <time>2021-12-23T14:09:16.028Z</time>
      </trkpt>
      <trkpt lat="48.442414" lon="8.045301">
        <ele>343.302690</ele>
        <time>2021-12-23T14:09:23.029Z</time>
      </trkpt>
      <trkpt lat="48.442347" lon="8.045191">
        <ele>342.640823</ele>
        <time>2021-12-23T14:09:30.032Z</time>
      </trkpt>
      <trkpt lat="48.442289" lon="8.045078">
        <ele>342.007583</ele>
        <time>2021-12-23T14:09:38.026Z</time>
      </trkpt>
      <trkpt lat="48.442236" lon="8.044959">
        <ele>341.372317</ele>
        <time>2021-12-23T14:09:45.029Z</time>
      </trkpt>
      <trkpt lat="48.442206" lon="8.044831">
        <ele>340.770638</ele>
        <time>2021-12-23T14:09:53.037Z</time>
      </trkpt>
      <trkpt lat="48.442159" lon="8.044712">
        <ele>340.156813</ele>
        <time>2021-12-23T14:10:01.030Z</time>
      </trkpt>
      <trkpt lat="48.442126" lon="8.044578">
        <ele>339.523303</ele>
        <time>2021-12-23T14:10:11.040Z</time>
      </trkpt>
      <trkpt lat="48.442101" lon="8.044740">
        <ele>338.786125</ele>
        <time>2021-12-23T14:11:25.034Z</time>
      </trkpt>
      <trkpt lat="48.442012" lon="8.044711">
        <ele>338.663818</ele>
        <time>2021-12-23T14:12:17.038Z</time>
      </trkpt>
      <trkpt lat="48.441918" lon="8.044707">
        <ele>338.809262</ele>
        <time>2021-12-23T14:12:27.034Z</time>
      </trkpt>
      <trkpt lat="48.441828" lon="8.044734">
        <ele>338.951191</ele>
        <time>2021-12-23T14:12:35.037Z</time>
      </trkpt>
      <trkpt lat="48.441673" lon="8.044811">
        <ele>339.203606</ele>
        <time>2021-12-23T14:13:04.039Z</time>
      </trkpt>
      <trkpt lat="48.441716" lon="8.044931">
        <ele>339.343544</ele>
        <time>2021-12-23T14:13:14.033Z</time>
      </trkpt>
      <trkpt lat="48.441799" lon="8.045010">
        <ele>339.495365</ele>
        <time>2021-12-23T14:13:23.039Z</time>
      </trkpt>
      <trkpt lat="48.441871" lon="8.045095">
        <ele>339.636811</ele>
        <time>2021-12-23T14:13:31.038Z</time>
      </trkpt>
      <trkpt lat="48.441868" lon="8.045231">
        <ele>339.776427</ele>
        <time>2021-12-23T14:13:41.034Z</time>
      </trkpt>
      <trkpt lat="48.441884" lon="8.045365">
        <ele>339.916123</ele>
        <time>2021-12-23T14:13:57.027Z</time>
      </trkpt>
      <trkpt lat="48.441786" lon="8.045382">
        <ele>340.068697</ele>
        <time>2021-12-23T14:14:37.030Z</time>
      </trkpt>
      <trkpt lat="48.442678" lon="8.045651">
        <ele>341.489541</ele>
        <time>2021-12-23T14:45:26.022Z</time>
      </trkpt>
      <trkpt lat="48.441825" lon="8.045629">
        <ele>342.960066</ele>
        <time>2021-12-23T14:46:30.032Z</time>
      </trkpt>
      <trkpt lat="48.441735" lon="8.045678">
        <ele>343.125007</ele>
        <time>2021-12-23T14:46:40.028Z</time>
      </trkpt>
      <trkpt lat="48.441768" lon="8.045841">
        <ele>343.319878</ele>
        <time>2021-12-23T14:46:58.029Z</time>
      </trkpt>
      <trkpt lat="48.441839" lon="8.045929">
        <ele>343.478317</ele>
        <time>2021-12-23T14:47:03.035Z</time>
      </trkpt>
      <trkpt lat="48.441921" lon="8.045866">
        <ele>343.636959</ele>
        <time>2021-12-23T14:47:12.024Z</time>
      </trkpt>
      <trkpt lat="48.441629" lon="8.044925">
        <ele>345.719644</ele>
        <time>2021-12-23T15:00:35.032Z</time>
      </trkpt>
      <trkpt lat="48.441653" lon="8.045073">
        <ele>346.314938</ele>
        <time>2021-12-23T15:00:37.028Z</time>
      </trkpt>
      <trkpt lat="48.441675" lon="8.045260">
        <ele>347.056988</ele>
        <time>2021-12-23T15:00:43.033Z</time>
      </trkpt>
      <trkpt lat="48.441748" lon="8.045373">
        <ele>347.673267</ele>
        <time>2021-12-23T15:00:45.034Z</time>
      </trkpt>
      <trkpt lat="48.441772" lon="8.045506">
        <ele>348.211808</ele>
        <time>2021-12-23T15:00:52.031Z</time>
      </trkpt>
      <trkpt lat="48.441688" lon="8.045571">
        <ele>348.767932</ele>
        <time>2021-12-23T15:01:11.036Z</time>
      </trkpt>
      <trkpt lat="48.441680" lon="8.045710">
        <ele>349.313075</ele>
        <time>2021-12-23T15:01:23.039Z</time>
      </trkpt>
      <trkpt lat="48.441696" lon="8.045850">
        <ele>349.868143</ele>
        <time>2021-12-23T15:01:33.037Z</time>
      </trkpt>
      <trkpt lat="48.441708" lon="8.046018">
        <ele>350.528349</ele>
        <time>2021-12-23T15:01:45.037Z</time>
      </trkpt>
      <trkpt lat="48.441696" lon="8.046165">
        <ele>351.107041</ele>
        <time>2021-12-23T15:01:53.036Z</time>
      </trkpt>
      <trkpt lat="48.441720" lon="8.046296">
        <ele>351.638046</ele>
        <time>2021-12-23T15:02:03.040Z</time>
      </trkpt>
      <trkpt lat="48.441744" lon="8.046435">
        <ele>352.199243</ele>
        <time>2021-12-23T15:02:16.041Z</time>
      </trkpt>
      <trkpt lat="48.441731" lon="8.046586">
        <ele>352.794179</ele>
        <time>2021-12-23T15:02:27.040Z</time>
      </trkpt>
      <trkpt lat="48.441696" lon="8.046806">
        <ele>353.678138</ele>
        <time>2021-12-23T15:02:49.052Z</time>
      </trkpt>
      <trkpt lat="48.441644" lon="8.046928">
        <ele>354.244730</ele>
        <time>2021-12-23T15:02:59.052Z</time>
      </trkpt>
      <trkpt lat="48.441630" lon="8.047097">
        <ele>354.910178</ele>
        <time>2021-12-23T15:03:10.035Z</time>
      </trkpt>
      <trkpt lat="48.441619" lon="8.047245">
        <ele>356.202322</ele>
        <time>2021-12-23T15:03:19.041Z</time>
      </trkpt>
      <trkpt lat="48.441600" lon="8.047381">
        <ele>357.614645</ele>
        <time>2021-12-23T15:03:28.040Z</time>
      </trkpt>
      <trkpt lat="48.441602" lon="8.047610">
        <ele>359.941905</ele>
        <time>2021-12-23T15:04:05.042Z</time>
      </trkpt>
      <trkpt lat="48.441592" lon="8.047750">
        <ele>361.372785</ele>
        <time>2021-12-23T15:04:15.039Z</time>
      </trkpt>
      <trkpt lat="48.441595" lon="8.047904">
        <ele>362.938381</ele>
        <time>2021-12-23T15:04:24.039Z</time>
      </trkpt>
      <trkpt lat="48.441538" lon="8.048038">
        <ele>364.555958</ele>
        <time>2021-12-23T15:04:34.035Z</time>
      </trkpt>
      <trkpt lat="48.441518" lon="8.048174">
        <ele>365.971519</ele>
        <time>2021-12-23T15:04:43.042Z</time>
      </trkpt>
      <trkpt lat="48.441480" lon="8.048302">
        <ele>367.396543</ele>
        <time>2021-12-23T15:04:59.046Z</time>
      </trkpt>
      <trkpt lat="48.441460" lon="8.048522">
        <ele>369.653046</ele>
        <time>2021-12-23T15:05:42.042Z</time>
      </trkpt>
      <trkpt lat="48.441446" lon="8.048661">
        <ele>371.081731</ele>
        <time>2021-12-23T15:05:58.044Z</time>
      </trkpt>
      <trkpt lat="48.441432" lon="8.048802">
        <ele>372.530514</ele>
        <time>2021-12-23T15:06:14.042Z</time>
      </trkpt>
      <trkpt lat="48.441428" lon="8.048938">
        <ele>373.913885</ele>
        <time>2021-12-23T15:06:54.043Z</time>
      </trkpt>
      <trkpt lat="48.441376" lon="8.049060">
        <ele>375.387472</ele>
        <time>2021-12-23T15:07:09.035Z</time>
      </trkpt>
      <trkpt lat="48.441312" lon="8.049167">
        <ele>376.851501</ele>
        <time>2021-12-23T15:07:23.034Z</time>
      </trkpt>
      <trkpt lat="48.441243" lon="8.049262">
        <ele>378.282973</ele>
        <time>2021-12-23T15:07:37.031Z</time>
      </trkpt>
      <trkpt lat="48.441160" lon="8.049202">
        <ele>379.693021</ele>
        <time>2021-12-23T15:08:36.031Z</time>
      </trkpt>
      <trkpt lat="48.441123" lon="8.049334">
        <ele>381.149220</ele>
        <time>2021-12-23T15:08:44.033Z</time>
      </trkpt>
      <trkpt lat="48.441027" lon="8.049387">
        <ele>382.640581</ele>
        <time>2021-12-23T15:08:49.037Z</time>
      </trkpt>
      <trkpt lat="48.440957" lon="8.049497">
        <ele>383.182909</ele>
        <time>2021-12-23T15:08:59.037Z</time>
      </trkpt>
      <trkpt lat="48.440846" lon="8.049488">
        <ele>383.779092</ele>
        <time>2021-12-23T15:09:09.024Z</time>
      </trkpt>
      <trkpt lat="48.440845" lon="8.049349">
        <ele>384.273676</ele>
        <time>2021-12-23T15:09:24.033Z</time>
      </trkpt>
      <trkpt lat="48.440827" lon="8.049206">
        <ele>384.791541</ele>
        <time>2021-12-23T15:09:38.038Z</time>
      </trkpt>
      <trkpt lat="48.440797" lon="8.049025">
        <ele>385.455327</ele>
        <time>2021-12-23T15:10:18.052Z</time>
      </trkpt>
      <trkpt lat="48.440710" lon="8.048985">
        <ele>385.943152</ele>
        <time>2021-12-23T15:10:35.040Z</time>
      </trkpt>
      <trkpt lat="48.440621" lon="8.048905">
        <ele>386.498907</ele>
        <time>2021-12-23T15:10:46.034Z</time>
      </trkpt>
      <trkpt lat="48.440531" lon="8.048896">
        <ele>386.982662</ele>
        <time>2021-12-23T15:10:54.041Z</time>
      </trkpt>
      <trkpt lat="48.440445" lon="8.048823">
        <ele>387.512005</ele>
        <time>2021-12-23T15:11:06.035Z</time>
      </trkpt>
      <trkpt lat="48.440355" lon="8.048778">
        <ele>388.020560</ele>
        <time>2021-12-23T15:11:14.044Z</time>
      </trkpt>
      <trkpt lat="48.440338" lon="8.048635">
        <ele>388.537457</ele>
        <time>2021-12-23T15:11:22.040Z</time>
      </trkpt>
      <trkpt lat="48.440258" lon="8.048564">
        <ele>389.035361</ele>
        <time>2021-12-23T15:11:43.066Z</time>
      </trkpt>
      <trkpt lat="48.440176" lon="8.048471">
        <ele>389.585728</ele>
        <time>2021-12-23T15:11:51.026Z</time>
      </trkpt>
      <trkpt lat="48.440122" lon="8.048353">
        <ele>390.095774</ele>
        <time>2021-12-23T15:12:00.037Z</time>
      </trkpt>
      <trkpt lat="48.440070" lon="8.048233">
        <ele>390.605750</ele>
        <time>2021-12-23T15:12:08.035Z</time>
      </trkpt>
      <trkpt lat="48.439995" lon="8.048139">
        <ele>391.128875</ele>
        <time>2021-12-23T15:12:14.036Z</time>
      </trkpt>
      <trkpt lat="48.439919" lon="8.048063">
        <ele>391.618022</ele>
        <time>2021-12-23T15:12:22.042Z</time>
      </trkpt>
      <trkpt lat="48.439853" lon="8.047965">
        <ele>392.114893</ele>
        <time>2021-12-23T15:12:31.041Z</time>
      </trkpt>
      <trkpt lat="48.439794" lon="8.047851">
        <ele>393.235752</ele>
        <time>2021-12-23T15:12:47.032Z</time>
      </trkpt>
      <trkpt lat="48.439662" lon="8.047755">
        <ele>395.268294</ele>
        <time>2021-12-23T15:13:25.044Z</time>
      </trkpt>
      <trkpt lat="48.439570" lon="8.047764">
        <ele>396.546857</ele>
        <time>2021-12-23T15:13:39.039Z</time>
      </trkpt>
      <trkpt lat="48.439472" lon="8.047785">
        <ele>397.919611</ele>
        <time>2021-12-23T15:13:48.040Z</time>
      </trkpt>
      <trkpt lat="48.439375" lon="8.047785">
        <ele>399.264832</ele>
        <time>2021-12-23T15:14:00.042Z</time>
      </trkpt>
      <trkpt lat="48.439287" lon="8.047825">
        <ele>400.539519</ele>
        <time>2021-12-23T15:14:14.041Z</time>
      </trkpt>
      <trkpt lat="48.439198" lon="8.047771">
        <ele>401.870032</ele>
        <time>2021-12-23T15:14:27.050Z</time>
      </trkpt>
      <trkpt lat="48.439046" lon="8.047808">
        <ele>404.005317</ele>
        <time>2021-12-23T15:15:26.039Z</time>
      </trkpt>
      <trkpt lat="48.438958" lon="8.047765">
        <ele>405.288245</ele>
        <time>2021-12-23T15:15:37.037Z</time>
      </trkpt>
      <trkpt lat="48.438869" lon="8.047702">
        <ele>406.651845</ele>
        <time>2021-12-23T15:15:49.035Z</time>
      </trkpt>
      <trkpt lat="48.438776" lon="8.047670">
        <ele>407.974770</ele>
        <time>2021-12-23T15:15:58.033Z</time>
      </trkpt>
      <trkpt lat="48.438678" lon="8.047679">
        <ele>409.336379</ele>
        <time>2021-12-23T15:16:05.032Z</time>
      </trkpt>
      <trkpt lat="48.438594" lon="8.047608">
        <ele>410.671964</ele>
        <time>2021-12-23T15:16:26.023Z</time>
      </trkpt>
      <trkpt lat="48.438493" lon="8.047611">
        <ele>412.072929</ele>
        <time>2021-12-23T15:16:43.030Z</time>
      </trkpt>
      <trkpt lat="48.438402" lon="8.047574">
        <ele>413.380048</ele>
        <time>2021-12-23T15:17:07.033Z</time>
      </trkpt>
      <trkpt lat="48.438400" lon="8.047432">
        <ele>414.686820</ele>
        <time>2021-12-23T15:17:21.041Z</time>
      </trkpt>
      <trkpt lat="48.438378" lon="8.047279">
        <ele>416.127188</ele>
        <time>2021-12-23T15:17:33.034Z</time>
      </trkpt>
      <trkpt lat="48.438438" lon="8.047179">
        <ele>417.106698</ele>
        <time>2021-12-23T15:17:42.035Z</time>
      </trkpt>
      <trkpt lat="48.438505" lon="8.047080">
        <ele>416.486215</ele>
        <time>2021-12-23T15:17:49.037Z</time>
      </trkpt>
      <trkpt lat="48.438583" lon="8.046971">
        <ele>415.782797</ele>
        <time>2021-12-23T15:17:55.036Z</time>
      </trkpt>
      <trkpt lat="48.438648" lon="8.046871">
        <ele>415.168564</ele>
        <time>2021-12-23T15:18:02.041Z</time>
      </trkpt>
      <trkpt lat="48.438708" lon="8.046753">
        <ele>414.516274</ele>
        <time>2021-12-23T15:18:10.046Z</time>
      </trkpt>
      <trkpt lat="48.438764" lon="8.046633">
        <ele>413.872573</ele>
        <time>2021-12-23T15:18:19.035Z</time>
      </trkpt>
      <trkpt lat="48.438782" lon="8.046495">
        <ele>413.255517</ele>
        <time>2021-12-23T15:18:27.035Z</time>
      </trkpt>
      <trkpt lat="48.438793" lon="8.046346">
        <ele>412.597755</ele>
        <time>2021-12-23T15:18:34.043Z</time>
      </trkpt>
      <trkpt lat="48.438839" lon="8.046216">
        <ele>411.951333</ele>
        <time>2021-12-23T15:18:41.034Z</time>
      </trkpt>
      <trkpt lat="48.438862" lon="8.046070">
        <ele>411.292958</ele>
        <time>2021-12-23T15:18:48.039Z</time>
      </trkpt>
      <trkpt lat="48.438857" lon="8.045933">
        <ele>410.690972</ele>
        <time>2021-12-23T15:18:54.044Z</time>
      </trkpt>
      <trkpt lat="48.438825" lon="8.045793">
        <ele>410.041299</ele>
        <time>2021-12-23T15:19:03.042Z</time>
      </trkpt>
      <trkpt lat="48.438793" lon="8.045656">
        <ele>409.404055</ele>
        <time>2021-12-23T15:19:13.039Z</time>
      </trkpt>
      <trkpt lat="48.438770" lon="8.045514">
        <ele>408.762742</ele>
        <time>2021-12-23T15:19:20.044Z</time>
      </trkpt>
      <trkpt lat="48.438744" lon="8.045379">
        <ele>408.145985</ele>
        <time>2021-12-23T15:19:27.044Z</time>
      </trkpt>
      <trkpt lat="48.438712" lon="8.045245">
        <ele>407.521141</ele>
        <time>2021-12-23T15:19:33.044Z</time>
      </trkpt>
      <trkpt lat="48.438650" lon="8.045139">
        <ele>406.901132</ele>
        <time>2021-12-23T15:19:39.047Z</time>
      </trkpt>
      <trkpt lat="48.438577" lon="8.045052">
        <ele>406.285688</ele>
        <time>2021-12-23T15:19:47.035Z</time>
      </trkpt>
      <trkpt lat="48.438494" lon="8.044977">
        <ele>405.645704</ele>
        <time>2021-12-23T15:19:54.049Z</time>
      </trkpt>
      <trkpt lat="48.438422" lon="8.044888">
        <ele>405.272929</ele>
        <time>2021-12-23T15:20:00.044Z</time>
      </trkpt>
      <trkpt lat="48.438333" lon="8.044845">
        <ele>405.219497</ele>
        <time>2021-12-23T15:20:08.041Z</time>
      </trkpt>
      <trkpt lat="48.438255" lon="8.044761">
        <ele>405.164693</ele>
        <time>2021-12-23T15:20:18.033Z</time>
      </trkpt>
      <trkpt lat="48.438168" lon="8.044718">
        <ele>405.112349</ele>
        <time>2021-12-23T15:20:28.042Z</time>
      </trkpt>
      <trkpt lat="48.438077" lon="8.044699">
        <ele>405.059828</ele>
        <time>2021-12-23T15:20:39.037Z</time>
      </trkpt>
      <trkpt lat="48.437985" lon="8.044729">
        <ele>405.006015</ele>
        <time>2021-12-23T15:20:48.040Z</time>
      </trkpt>
      <trkpt lat="48.437889" lon="8.044754">
        <ele>404.950318</ele>
        <time>2021-12-23T15:20:55.043Z</time>
      </trkpt>
      <trkpt lat="48.437792" lon="8.044777">
        <ele>404.894182</ele>
        <time>2021-12-23T15:21:05.041Z</time>
      </trkpt>
      <trkpt lat="48.437698" lon="8.044776">
        <ele>404.840440</ele>
        <time>2021-12-23T15:21:15.044Z</time>
      </trkpt>
      <trkpt lat="48.437613" lon="8.044725">
        <ele>404.788137</ele>
        <time>2021-12-23T15:21:27.038Z</time>
      </trkpt>
      <trkpt lat="48.437507" lon="8.044702">
        <ele>404.726913</ele>
        <time>2021-12-23T15:21:35.034Z</time>
      </trkpt>
      <trkpt lat="48.437417" lon="8.044665">
        <ele>404.673580</ele>
        <time>2021-12-23T15:21:42.037Z</time>
      </trkpt>
      <trkpt lat="48.437325" lon="8.044611">
        <ele>404.617137</ele>
        <time>2021-12-23T15:21:49.039Z</time>
      </trkpt>
      <trkpt lat="48.437278" lon="8.044473">
        <ele>404.558301</ele>
        <time>2021-12-23T15:22:01.045Z</time>
      </trkpt>
      <trkpt lat="48.437198" lon="8.044388">
        <ele>404.502344</ele>
        <time>2021-12-23T15:22:09.041Z</time>
      </trkpt>
      <trkpt lat="48.437118" lon="8.044317">
        <ele>404.449269</ele>
        <time>2021-12-23T15:22:14.035Z</time>
      </trkpt>
      <trkpt lat="48.437051" lon="8.044227">
        <ele>404.397961</ele>
        <time>2021-12-23T15:22:20.029Z</time>
      </trkpt>
      <trkpt lat="48.436991" lon="8.044110">
        <ele>404.341872</ele>
        <time>2021-12-23T15:22:30.035Z</time>
      </trkpt>
      <trkpt lat="48.436929" lon="8.044005">
        <ele>404.288558</ele>
        <time>2021-12-23T15:22:35.038Z</time>
      </trkpt>
      <trkpt lat="48.436841" lon="8.043926">
        <ele>403.794327</ele>
        <time>2021-12-23T15:22:40.043Z</time>
      </trkpt>
      <trkpt lat="48.436790" lon="8.043814">
        <ele>403.146417</ele>
        <time>2021-12-23T15:22:45.042Z</time>
      </trkpt>
      <trkpt lat="48.436710" lon="8.043742">
        <ele>402.476566</ele>
        <time>2021-12-23T15:22:53.034Z</time>
      </trkpt>
      <trkpt lat="48.436641" lon="8.043621">
        <ele>401.715561</ele>
        <time>2021-12-23T15:23:00.045Z</time>
      </trkpt>
      <trkpt lat="48.436569" lon="8.043540">
        <ele>401.069666</ele>
        <time>2021-12-23T15:23:06.039Z</time>
      </trkpt>
      <trkpt lat="48.436492" lon="8.043460">
        <ele>400.397341</ele>
        <time>2021-12-23T15:23:13.042Z</time>
      </trkpt>
      <trkpt lat="48.436423" lon="8.043334">
        <ele>399.618093</ele>
        <time>2021-12-23T15:23:19.040Z</time>
      </trkpt>
      <trkpt lat="48.436382" lon="8.043196">
        <ele>398.896904</ele>
        <time>2021-12-23T15:23:27.041Z</time>
      </trkpt>
      <trkpt lat="48.436334" lon="8.043066">
        <ele>398.187300</ele>
        <time>2021-12-23T15:23:33.043Z</time>
      </trkpt>
      <trkpt lat="48.436327" lon="8.042929">
        <ele>397.531929</ele>
        <time>2021-12-23T15:23:40.042Z</time>
      </trkpt>
      <trkpt lat="48.436322" lon="8.042794">
        <ele>396.887028</ele>
        <time>2021-12-23T15:23:46.043Z</time>
      </trkpt>
      <trkpt lat="48.436316" lon="8.042651">
        <ele>396.203611</ele>
        <time>2021-12-23T15:23:51.039Z</time>
      </trkpt>
      <trkpt lat="48.436317" lon="8.042504">
        <ele>395.502441</ele>
        <time>2021-12-23T15:23:57.040Z</time>
      </trkpt>
      <trkpt lat="48.436301" lon="8.042366">
        <ele>394.834260</ele>
        <time>2021-12-23T15:24:04.035Z</time>
      </trkpt>
      <trkpt lat="48.436262" lon="8.042239">
        <ele>394.166778</ele>
        <time>2021-12-23T15:24:12.037Z</time>
      </trkpt>
      <trkpt lat="48.436217" lon="8.042119">
        <ele>393.509323</ele>
        <time>2021-12-23T15:24:19.069Z</time>
      </trkpt>
      <trkpt lat="48.436183" lon="8.041979">
        <ele>392.798245</ele>
        <time>2021-12-23T15:24:29.035Z</time>
      </trkpt>
      <trkpt lat="48.436133" lon="8.041843">
        <ele>392.056639</ele>
        <time>2021-12-23T15:24:38.043Z</time>
      </trkpt>
      <trkpt lat="48.436089" lon="8.041707">
        <ele>391.335796</ele>
        <time>2021-12-23T15:24:45.037Z</time>
      </trkpt>
      <trkpt lat="48.436052" lon="8.041575">
        <ele>390.927843</ele>
        <time>2021-12-23T15:24:53.036Z</time>
      </trkpt>
      <trkpt lat="48.435987" lon="8.041462">
        <ele>390.502067</ele>
        <time>2021-12-23T15:25:01.044Z</time>
      </trkpt>
      <trkpt lat="48.435924" lon="8.041341">
        <ele>390.064182</ele>
        <time>2021-12-23T15:25:09.034Z</time>
      </trkpt>
      <trkpt lat="48.435879" lon="8.041208">
        <ele>389.639149</ele>
        <time>2021-12-23T15:25:19.047Z</time>
      </trkpt>
      <trkpt lat="48.435828" lon="8.041084">
        <ele>389.223802</ele>
        <time>2021-12-23T15:25:26.039Z</time>
      </trkpt>
      <trkpt lat="48.435776" lon="8.040967">
        <ele>388.822883</ele>
        <time>2021-12-23T15:25:33.047Z</time>
      </trkpt>
      <trkpt lat="48.435726" lon="8.040840">
        <ele>388.402458</ele>
        <time>2021-12-23T15:25:39.037Z</time>
      </trkpt>
      <trkpt lat="48.435662" lon="8.040735">
        <ele>387.996532</ele>
        <time>2021-12-23T15:25:46.036Z</time>
      </trkpt>
      <trkpt lat="48.435601" lon="8.040619">
        <ele>387.575136</ele>
        <time>2021-12-23T15:25:52.049Z</time>
      </trkpt>
      <trkpt lat="48.435570" lon="8.040486">
        <ele>387.173809</ele>
        <time>2021-12-23T15:25:58.039Z</time>
      </trkpt>
      <trkpt lat="48.435524" lon="8.040352">
        <ele>386.744280</ele>
        <time>2021-12-23T15:26:06.043Z</time>
      </trkpt>
      <trkpt lat="48.435454" lon="8.040234">
        <ele>386.293639</ele>
        <time>2021-12-23T15:26:15.041Z</time>
      </trkpt>
      <trkpt lat="48.435416" lon="8.040086">
        <ele>385.841842</ele>
        <time>2021-12-23T15:26:21.039Z</time>
      </trkpt>
      <trkpt lat="48.435377" lon="8.039946">
        <ele>385.409564</ele>
        <time>2021-12-23T15:26:28.038Z</time>
      </trkpt>
      <trkpt lat="48.435329" lon="8.039815">
        <ele>384.983519</ele>
        <time>2021-12-23T15:26:36.043Z</time>
      </trkpt>
      <trkpt lat="48.435298" lon="8.039677">
        <ele>384.568733</ele>
        <time>2021-12-23T15:26:43.035Z</time>
      </trkpt>
      <trkpt lat="48.435277" lon="8.039538">
        <ele>384.162878</ele>
        <time>2021-12-23T15:26:50.044Z</time>
      </trkpt>
      <trkpt lat="48.435250" lon="8.039404">
        <ele>383.764182</ele>
        <time>2021-12-23T15:26:56.045Z</time>
      </trkpt>
      <trkpt lat="48.435209" lon="8.039272">
        <ele>383.647966</ele>
        <time>2021-12-23T15:27:02.043Z</time>
      </trkpt>
      <trkpt lat="48.435167" lon="8.039138">
        <ele>383.693207</ele>
        <time>2021-12-23T15:27:09.054Z</time>
      </trkpt>
      <trkpt lat="48.435138" lon="8.039005">
        <ele>383.735945</ele>
        <time>2021-12-23T15:27:16.040Z</time>
      </trkpt>
      <trkpt lat="48.435112" lon="8.038867">
        <ele>383.779739</ele>
        <time>2021-12-23T15:27:23.040Z</time>
      </trkpt>
      <trkpt lat="48.435062" lon="8.038730">
        <ele>383.827471</ele>
        <time>2021-12-23T15:27:30.045Z</time>
      </trkpt>
      <trkpt lat="48.435005" lon="8.038607">
        <ele>383.873273</ele>
        <time>2021-12-23T15:27:39.040Z</time>
      </trkpt>
      <trkpt lat="48.434946" lon="8.038501">
        <ele>383.915511</ele>
        <time>2021-12-23T15:27:45.041Z</time>
      </trkpt>
      <trkpt lat="48.434887" lon="8.038392">
        <ele>383.958455</ele>
        <time>2021-12-23T15:27:53.045Z</time>
      </trkpt>
      <trkpt lat="48.434835" lon="8.038279">
        <ele>384.000437</ele>
        <time>2021-12-23T15:27:59.046Z</time>
      </trkpt>
      <trkpt lat="48.434776" lon="8.038164">
        <ele>384.044815</ele>
        <time>2021-12-23T15:28:06.042Z</time>
      </trkpt>
      <trkpt lat="48.434709" lon="8.038050">
        <ele>384.091307</ele>
        <time>2021-12-23T15:28:12.041Z</time>
      </trkpt>
      <trkpt lat="48.434627" lon="8.037954">
        <ele>384.139082</ele>
        <time>2021-12-23T15:28:18.045Z</time>
      </trkpt>
      <trkpt lat="48.434563" lon="8.037850">
        <ele>384.182385</ele>
        <time>2021-12-23T15:28:25.041Z</time>
      </trkpt>
      <trkpt lat="48.434479" lon="8.037780">
        <ele>384.226549</ele>
        <time>2021-12-23T15:28:33.038Z</time>
      </trkpt>
      <trkpt lat="48.434389" lon="8.037738">
        <ele>384.269899</ele>
        <time>2021-12-23T15:28:41.040Z</time>
      </trkpt>
      <trkpt lat="48.434239" lon="8.037769">
        <ele>384.339563</ele>
        <time>2021-12-23T15:29:37.063Z</time>
      </trkpt>
      <trkpt lat="48.434146" lon="8.037752">
        <ele>384.382668</ele>
        <time>2021-12-23T15:29:48.039Z</time>
      </trkpt>
      <trkpt lat="48.434048" lon="8.037726">
        <ele>384.428453</ele>
        <time>2021-12-23T15:29:54.041Z</time>
      </trkpt>
      <trkpt lat="48.433959" lon="8.037681">
        <ele>384.048729</ele>
        <time>2021-12-23T15:30:01.035Z</time>
      </trkpt>
      <trkpt lat="48.433875" lon="8.037622">
        <ele>383.370588</ele>
        <time>2021-12-23T15:30:07.039Z</time>
      </trkpt>
      <trkpt lat="48.433783" lon="8.037572">
        <ele>382.654946</ele>
        <time>2021-12-23T15:30:13.034Z</time>
      </trkpt>
      <trkpt lat="48.433699" lon="8.037499">
        <ele>381.945414</ele>
        <time>2021-12-23T15:30:21.034Z</time>
      </trkpt>
      <trkpt lat="48.433610" lon="8.037434">
        <ele>381.221721</ele>
        <time>2021-12-23T15:30:28.046Z</time>
      </trkpt>
      <trkpt lat="48.433548" lon="8.037327">
        <ele>380.532007</ele>
        <time>2021-12-23T15:30:37.039Z</time>
      </trkpt>
      <trkpt lat="48.433477" lon="8.037222">
        <ele>379.804128</ele>
        <time>2021-12-23T15:30:44.039Z</time>
      </trkpt>
      <trkpt lat="48.433407" lon="8.037121">
        <ele>379.095020</ele>
        <time>2021-12-23T15:30:51.039Z</time>
      </trkpt>
      <trkpt lat="48.433328" lon="8.037023">
        <ele>378.346309</ele>
        <time>2021-12-23T15:31:00.042Z</time>
      </trkpt>
      <trkpt lat="48.433272" lon="8.036898">
        <ele>377.614028</ele>
        <time>2021-12-23T15:31:06.034Z</time>
      </trkpt>
      <trkpt lat="48.433211" lon="8.036790">
        <ele>376.925412</ele>
        <time>2021-12-23T15:31:13.043Z</time>
      </trkpt>
      <trkpt lat="48.433163" lon="8.036661">
        <ele>376.207333</ele>
        <time>2021-12-23T15:31:21.043Z</time>
      </trkpt>
      <trkpt lat="48.433109" lon="8.036546">
        <ele>375.523313</ele>
        <time>2021-12-23T15:31:28.039Z</time>
      </trkpt>
      <trkpt lat="48.433054" lon="8.036436">
        <ele>374.854580</ele>
        <time>2021-12-23T15:31:34.042Z</time>
      </trkpt>
      <trkpt lat="48.432987" lon="8.036323">
        <ele>374.118805</ele>
        <time>2021-12-23T15:31:42.044Z</time>
      </trkpt>
      <trkpt lat="48.432927" lon="8.036216">
        <ele>373.438623</ele>
        <time>2021-12-23T15:31:48.037Z</time>
      </trkpt>
      <trkpt lat="48.432862" lon="8.036109">
        <ele>372.734269</ele>
        <time>2021-12-23T15:31:55.042Z</time>
      </trkpt>
      <trkpt lat="48.432796" lon="8.035994">
        <ele>371.996031</ele>
        <time>2021-12-23T15:32:02.040Z</time>
      </trkpt>
      <trkpt lat="48.432734" lon="8.035873">
        <ele>371.231987</ele>
        <time>2021-12-23T15:32:09.042Z</time>
      </trkpt>
      <trkpt lat="48.432689" lon="8.035753">
        <ele>370.096233</ele>
        <time>2021-12-23T15:32:15.043Z</time>
      </trkpt>
      <trkpt lat="48.432623" lon="8.035650">
        <ele>368.916383</ele>
        <time>2021-12-23T15:32:39.038Z</time>
      </trkpt>
      <trkpt lat="48.432559" lon="8.035549">
        <ele>367.765622</ele>
        <time>2021-12-23T15:32:47.044Z</time>
      </trkpt>
      <trkpt lat="48.432504" lon="8.035424">
        <ele>366.529769</ele>
        <time>2021-12-23T15:32:54.043Z</time>
      </trkpt>
      <trkpt lat="48.432452" lon="8.035313">
        <ele>365.410165</ele>
        <time>2021-12-23T15:33:04.036Z</time>
      </trkpt>
      <trkpt lat="48.432391" lon="8.035213">
        <ele>364.290890</ele>
        <time>2021-12-23T15:33:12.041Z</time>
      </trkpt>
      <trkpt lat="48.432313" lon="8.035117">
        <ele>363.040302</ele>
        <time>2021-12-23T15:33:21.043Z</time>
      </trkpt>
      <trkpt lat="48.432247" lon="8.035016">
        <ele>361.872245</ele>
        <time>2021-12-23T15:33:28.038Z</time>
      </trkpt>
      <trkpt lat="48.432196" lon="8.034896">
        <ele>360.698028</ele>
        <time>2021-12-23T15:33:37.035Z</time>
      </trkpt>
      <trkpt lat="48.432172" lon="8.034752">
        <ele>359.474644</ele>
        <time>2021-12-23T15:33:45.046Z</time>
      </trkpt>
      <trkpt lat="48.432176" lon="8.034604">
        <ele>358.254150</ele>
        <time>2021-12-23T15:33:53.039Z</time>
      </trkpt>
      <trkpt lat="48.432177" lon="8.034452">
        <ele>357.001647</ele>
        <time>2021-12-23T15:34:01.043Z</time>
      </trkpt>
      <trkpt lat="48.432179" lon="8.034311">
        <ele>355.839577</ele>
        <time>2021-12-23T15:34:09.047Z</time>
      </trkpt>
      <trkpt lat="48.432210" lon="8.034183">
        <ele>354.716826</ele>
        <time>2021-12-23T15:34:16.034Z</time>
      </trkpt>
      <trkpt lat="48.432215" lon="8.034027">
        <ele>353.429927</ele>
        <time>2021-12-23T15:34:25.037Z</time>
      </trkpt>
      <trkpt lat="48.432204" lon="8.033869">
        <ele>352.120901</ele>
        <time>2021-12-23T15:34:32.039Z</time>
      </trkpt>
      <trkpt lat="48.432194" lon="8.033713">
        <ele>350.829516</ele>
        <time>2021-12-23T15:34:39.039Z</time>
      </trkpt>
      <trkpt lat="48.432184" lon="8.033559">
        <ele>349.554533</ele>
        <time>2021-12-23T15:34:47.043Z</time>
      </trkpt>
      <trkpt lat="48.432150" lon="8.033426">
        <ele>348.551482</ele>
        <time>2021-12-23T15:34:54.041Z</time>
      </trkpt>
      <trkpt lat="48.432112" lon="8.033296">
        <ele>347.733831</ele>
        <time>2021-12-23T15:35:01.042Z</time>
      </trkpt>
      <trkpt lat="48.432067" lon="8.033146">
        <ele>346.786307</ele>
        <time>2021-12-23T15:35:09.043Z</time>
      </trkpt>
      <trkpt lat="48.432027" lon="8.033017">
        <ele>345.966725</ele>
        <time>2021-12-23T15:35:15.038Z</time>
      </trkpt>
      <trkpt lat="48.431988" lon="8.032876">
        <ele>345.087458</ele>
        <time>2021-12-23T15:35:25.048Z</time>
      </trkpt>
      <trkpt lat="48.431943" lon="8.032737">
        <ele>344.197241</ele>
        <time>2021-12-23T15:35:32.042Z</time>
      </trkpt>
      <trkpt lat="48.431897" lon="8.032615">
        <ele>343.389566</ele>
        <time>2021-12-23T15:35:39.036Z</time>
      </trkpt>
      <trkpt lat="48.431852" lon="8.032493">
        <ele>342.586141</ele>
        <time>2021-12-23T15:35:46.039Z</time>
      </trkpt>
      <trkpt lat="48.431783" lon="8.032391">
        <ele>341.747712</ele>
        <time>2021-12-23T15:35:54.049Z</time>
      </trkpt>
      <trkpt lat="48.431728" lon="8.032269">
        <ele>340.898743</ele>
        <time>2021-12-23T15:36:04.035Z</time>
      </trkpt>
      <trkpt lat="48.431664" lon="8.032152">
        <ele>340.025958</ele>
        <time>2021-12-23T15:36:11.042Z</time>
      </trkpt>
      <trkpt lat="48.431641" lon="8.032016">
        <ele>339.218132</ele>
        <time>2021-12-23T15:36:17.041Z</time>
      </trkpt>
      <trkpt lat="48.431595" lon="8.031896">
        <ele>338.420442</ele>
        <time>2021-12-23T15:36:22.037Z</time>
      </trkpt>
      <trkpt lat="48.431543" lon="8.031784">
        <ele>337.633632</ele>
        <time>2021-12-23T15:36:29.043Z</time>
      </trkpt>
      <trkpt lat="48.431494" lon="8.031670">
        <ele>336.851811</ele>
        <time>2021-12-23T15:36:36.044Z</time>
      </trkpt>
      <trkpt lat="48.431451" lon="8.031548">
        <ele>336.056666</ele>
        <time>2021-12-23T15:36:44.037Z</time>
      </trkpt>
      <trkpt lat="48.431404" lon="8.031428">
        <ele>335.254599</ele>
        <time>2021-12-23T15:36:51.043Z</time>
      </trkpt>
      <trkpt lat="48.431358" lon="8.031294">
        <ele>334.386195</ele>
        <time>2021-12-23T15:36:58.038Z</time>
      </trkpt>
      <trkpt lat="48.431263" lon="8.031230">
        <ele>333.483498</ele>
        <time>2021-12-23T15:37:09.041Z</time>
      </trkpt>
      <trkpt lat="48.431219" lon="8.031103">
        <ele>332.332806</ele>
        <time>2021-12-23T15:37:16.031Z</time>
      </trkpt>
      <trkpt lat="48.431160" lon="8.030997">
        <ele>331.158353</ele>
        <time>2021-12-23T15:37:23.042Z</time>
      </trkpt>
      <trkpt lat="48.431101" lon="8.030880">
        <ele>329.910919</ele>
        <time>2021-12-23T15:37:29.043Z</time>
      </trkpt>
      <trkpt lat="48.431056" lon="8.030744">
        <ele>328.620892</ele>
        <time>2021-12-23T15:37:35.042Z</time>
      </trkpt>
      <trkpt lat="48.430982" lon="8.030639">
        <ele>327.320641</ele>
        <time>2021-12-23T15:37:41.044Z</time>
      </trkpt>
      <trkpt lat="48.430908" lon="8.030548">
        <ele>326.098783</ele>
        <time>2021-12-23T15:37:47.041Z</time>
      </trkpt>
      <trkpt lat="48.430862" lon="8.030428">
        <ele>324.922378</ele>
        <time>2021-12-23T15:38:02.058Z</time>
      </trkpt>
      <trkpt lat="48.430894" lon="8.030292">
        <ele>323.697491</ele>
        <time>2021-12-23T15:38:14.041Z</time>
      </trkpt>
      <trkpt lat="48.430858" lon="8.030137">
        <ele>322.303480</ele>
        <time>2021-12-23T15:38:53.039Z</time>
      </trkpt>
      <trkpt lat="48.430952" lon="8.030182">
        <ele>321.041707</ele>
        <time>2021-12-23T15:39:02.052Z</time>
      </trkpt>
      <trkpt lat="48.431040" lon="8.030233">
        <ele>319.835535</ele>
        <time>2021-12-23T15:39:15.034Z</time>
      </trkpt>
      <trkpt lat="48.431128" lon="8.030281">
        <ele>318.638267</ele>
        <time>2021-12-23T15:39:28.041Z</time>
      </trkpt>
      <trkpt lat="48.431219" lon="8.030339">
        <ele>317.374258</ele>
        <time>2021-12-23T15:39:40.038Z</time>
      </trkpt>
      <trkpt lat="48.431305" lon="8.030389">
        <ele>316.195014</ele>
        <time>2021-12-23T15:39:45.040Z</time>
      </trkpt>
      <trkpt lat="48.431388" lon="8.030468">
        <ele>314.939150</ele>
        <time>2021-12-23T15:39:51.037Z</time>
      </trkpt>
      <trkpt lat="48.431476" lon="8.030546">
        <ele>313.633081</ele>
        <time>2021-12-23T15:39:58.047Z</time>
      </trkpt>
      <trkpt lat="48.431563" lon="8.030610">
        <ele>312.394563</ele>
        <time>2021-12-23T15:40:06.038Z</time>
      </trkpt>
      <trkpt lat="48.431657" lon="8.030679">
        <ele>311.056950</ele>
        <time>2021-12-23T15:40:15.039Z</time>
      </trkpt>
      <trkpt lat="48.431751" lon="8.030736">
        <ele>309.917854</ele>
        <time>2021-12-23T15:40:22.039Z</time>
      </trkpt>
      <trkpt lat="48.431851" lon="8.030787">
        <ele>308.936747</ele>
        <time>2021-12-23T15:40:29.043Z</time>
      </trkpt>
      <trkpt lat="48.431930" lon="8.030883">
        <ele>307.993648</ele>
        <time>2021-12-23T15:40:35.041Z</time>
      </trkpt>
      <trkpt lat="48.432004" lon="8.030968">
        <ele>307.128974</ele>
        <time>2021-12-23T15:40:40.042Z</time>
      </trkpt>
      <trkpt lat="48.432074" lon="8.031069">
        <ele>306.228381</ele>
        <time>2021-12-23T15:40:46.033Z</time>
      </trkpt>
      <trkpt lat="48.432151" lon="8.031161">
        <ele>305.315203</ele>
        <time>2021-12-23T15:40:55.035Z</time>
      </trkpt>
      <trkpt lat="48.432224" lon="8.031247">
        <ele>304.454120</ele>
        <time>2021-12-23T15:41:01.037Z</time>
      </trkpt>
      <trkpt lat="48.432314" lon="8.031340">
        <ele>303.440005</ele>
        <time>2021-12-23T15:41:08.038Z</time>
      </trkpt>
      <trkpt lat="48.432397" lon="8.031423">
        <ele>302.514306</ele>
        <time>2021-12-23T15:41:15.037Z</time>
      </trkpt>
      <trkpt lat="48.432481" lon="8.031513">
        <ele>301.556504</ele>
        <time>2021-12-23T15:41:22.033Z</time>
      </trkpt>
      <trkpt lat="48.432568" lon="8.031583">
        <ele>300.639977</ele>
        <time>2021-12-23T15:41:29.048Z</time>
      </trkpt>
      <trkpt lat="48.432657" lon="8.031627">
        <ele>299.769503</ele>
        <time>2021-12-23T15:41:35.046Z</time>
      </trkpt>
      <trkpt lat="48.432741" lon="8.031714">
        <ele>298.822301</ele>
        <time>2021-12-23T15:41:41.040Z</time>
      </trkpt>
      <trkpt lat="48.432817" lon="8.031817">
        <ele>297.872444</ele>
        <time>2021-12-23T15:41:47.033Z</time>
      </trkpt>
      <trkpt lat="48.432891" lon="8.031895">
        <ele>297.033237</ele>
        <time>2021-12-23T15:41:52.041Z</time>
      </trkpt>
      <trkpt lat="48.432958" lon="8.031999">
        <ele>296.139402</ele>
        <time>2021-12-23T15:41:58.033Z</time>
      </trkpt>
      <trkpt lat="48.433029" lon="8.032083">
        <ele>295.300561</ele>
        <time>2021-12-23T15:42:03.035Z</time>
      </trkpt>
      <trkpt lat="48.433100" lon="8.032188">
        <ele>294.376137</ele>
        <time>2021-12-23T15:42:09.038Z</time>
      </trkpt>
      <trkpt lat="48.433172" lon="8.032284">
        <ele>293.467111</ele>
        <time>2021-12-23T15:42:15.034Z</time>
      </trkpt>
      <trkpt lat="48.433243" lon="8.032368">
        <ele>292.532400</ele>
        <time>2021-12-23T15:42:22.037Z</time>
      </trkpt>
      <trkpt lat="48.433333" lon="8.032444">
        <ele>291.464085</ele>
        <time>2021-12-23T15:42:29.044Z</time>
      </trkpt>
      <trkpt lat="48.433439" lon="8.032361">
        <ele>290.227099</ele>
        <time>2021-12-23T15:43:31.039Z</time>
      </trkpt>
      <trkpt lat="48.433430" lon="8.032226">
        <ele>289.294871</ele>
        <time>2021-12-23T15:43:40.040Z</time>
      </trkpt>
      <trkpt lat="48.433402" lon="8.032082">
        <ele>288.263863</ele>
        <time>2021-12-23T15:43:52.032Z</time>
      </trkpt>
      <trkpt lat="48.433405" lon="8.031944">
        <ele>287.315183</ele>
        <time>2021-12-23T15:44:00.027Z</time>
      </trkpt>
      <trkpt lat="48.433381" lon="8.031803">
        <ele>286.315029</ele>
        <time>2021-12-23T15:44:08.041Z</time>
      </trkpt>
      <trkpt lat="48.433365" lon="8.031668">
        <ele>285.372787</ele>
        <time>2021-12-23T15:44:16.038Z</time>
      </trkpt>
      <trkpt lat="48.433388" lon="8.031535">
        <ele>284.428441</ele>
        <time>2021-12-23T15:44:24.034Z</time>
      </trkpt>
      <trkpt lat="48.433380" lon="8.031395">
        <ele>283.462967</ele>
        <time>2021-12-23T15:44:44.028Z</time>
      </trkpt>
      <trkpt lat="48.433258" lon="8.031193">
        <ele>281.586162</ele>
        <time>2021-12-23T15:45:24.027Z</time>
      </trkpt>
      <trkpt lat="48.433175" lon="8.031124">
        <ele>280.604573</ele>
        <time>2021-12-23T15:45:33.034Z</time>
      </trkpt>
      <trkpt lat="48.433114" lon="8.031021">
        <ele>279.655961</ele>
        <time>2021-12-23T15:45:49.037Z</time>
      </trkpt>
      <trkpt lat="48.433196" lon="8.030952">
        <ele>278.683427</ele>
        <time>2021-12-23T15:46:15.045Z</time>
      </trkpt>
      <trkpt lat="48.433287" lon="8.030945">
        <ele>277.739846</ele>
        <time>2021-12-23T15:46:22.048Z</time>
      </trkpt>
      <trkpt lat="48.433384" lon="8.030922">
        <ele>276.723003</ele>
        <time>2021-12-23T15:46:28.034Z</time>
      </trkpt>
      <trkpt lat="48.433482" lon="8.030908">
        <ele>275.703611</ele>
        <time>2021-12-23T15:46:35.041Z</time>
      </trkpt>
      <trkpt lat="48.433572" lon="8.030848">
        <ele>274.742721</ele>
        <time>2021-12-23T15:46:44.028Z</time>
      </trkpt>
      <trkpt lat="48.433654" lon="8.030724">
        <ele>273.766297</ele>
        <time>2021-12-23T15:48:08.041Z</time>
      </trkpt>
      <trkpt lat="48.433619" lon="8.030600">
        <ele>273.014738</ele>
        <time>2021-12-23T15:48:23.037Z</time>
      </trkpt>
      <trkpt lat="48.433527" lon="8.030558">
        <ele>272.206691</ele>
        <time>2021-12-23T15:48:30.036Z</time>
      </trkpt>
      <trkpt lat="48.433433" lon="8.030520">
        <ele>271.388601</ele>
        <time>2021-12-23T15:48:38.033Z</time>
      </trkpt>
      <trkpt lat="48.433365" lon="8.030413">
        <ele>270.562243</ele>
        <time>2021-12-23T15:48:44.038Z</time>
      </trkpt>
      <trkpt lat="48.433313" lon="8.030297">
        <ele>269.781456</ele>
        <time>2021-12-23T15:48:51.036Z</time>
      </trkpt>
      <trkpt lat="48.433278" lon="8.030159">
        <ele>268.957474</ele>
        <time>2021-12-23T15:48:57.038Z</time>
      </trkpt>
      <trkpt lat="48.433216" lon="8.030041">
        <ele>268.117985</ele>
        <time>2021-12-23T15:49:05.039Z</time>
      </trkpt>
      <trkpt lat="48.433151" lon="8.029920">
        <ele>267.249672</ele>
        <time>2021-12-23T15:49:12.035Z</time>
      </trkpt>
      <trkpt lat="48.433098" lon="8.029790">
        <ele>266.398683</ele>
        <time>2021-12-23T15:49:19.041Z</time>
      </trkpt>
      <trkpt lat="48.433035" lon="8.029670">
        <ele>265.545229</ele>
        <time>2021-12-23T15:49:26.034Z</time>
      </trkpt>
      <trkpt lat="48.432983" lon="8.029552">
        <ele>264.755170</ele>
        <time>2021-12-23T15:49:33.047Z</time>
      </trkpt>
      <trkpt lat="48.432928" lon="8.029425">
        <ele>263.909318</ele>
        <time>2021-12-23T15:49:41.037Z</time>
      </trkpt>
      <trkpt lat="48.432866" lon="8.029314">
        <ele>263.100069</ele>
        <time>2021-12-23T15:49:49.042Z</time>
      </trkpt>
      <trkpt lat="48.432803" lon="8.029203">
        <ele>262.285381</ele>
        <time>2021-12-23T15:49:57.042Z</time>
      </trkpt>
      <trkpt lat="48.432751" lon="8.029084">
        <ele>261.490668</ele>
        <time>2021-12-23T15:50:04.035Z</time>
      </trkpt>
      <trkpt lat="48.432708" lon="8.028943">
        <ele>260.625170</ele>
        <time>2021-12-23T15:50:11.039Z</time>
      </trkpt>
      <trkpt lat="48.432658" lon="8.028829">
        <ele>259.867729</ele>
        <time>2021-12-23T15:50:18.033Z</time>
      </trkpt>
      <trkpt lat="48.432615" lon="8.028695">
        <ele>259.383155</ele>
        <time>2021-12-23T15:50:26.044Z</time>
      </trkpt>
      <trkpt lat="48.432574" lon="8.028552">
        <ele>258.876017</ele>
        <time>2021-12-23T15:50:34.038Z</time>
      </trkpt>
      <trkpt lat="48.432532" lon="8.028430">
        <ele>258.428570</ele>
        <time>2021-12-23T15:50:44.043Z</time>
      </trkpt>
      <trkpt lat="48.432492" lon="8.028305">
        <ele>257.976780</ele>
        <time>2021-12-23T15:50:52.038Z</time>
      </trkpt>
      <trkpt lat="48.432449" lon="8.028166">
        <ele>257.477501</ele>
        <time>2021-12-23T15:51:02.039Z</time>
      </trkpt>
      <trkpt lat="48.432434" lon="8.028015">
        <ele>256.980445</ele>
        <time>2021-12-23T15:51:09.046Z</time>
      </trkpt>
      <trkpt lat="48.432389" lon="8.027893">
        <ele>256.526030</ele>
        <time>2021-12-23T15:51:18.043Z</time>
      </trkpt>
      <trkpt lat="48.432367" lon="8.027755">
        <ele>256.063987</ele>
        <time>2021-12-23T15:51:25.047Z</time>
      </trkpt>
      <trkpt lat="48.432379" lon="8.027607">
        <ele>255.578590</ele>
        <time>2021-12-23T15:51:32.045Z</time>
      </trkpt>
      <trkpt lat="48.432395" lon="8.027472">
        <ele>255.132143</ele>
        <time>2021-12-23T15:51:41.043Z</time>
      </trkpt>
      <trkpt lat="48.432368" lon="8.027328">
        <ele>254.644995</ele>
        <time>2021-12-23T15:51:49.045Z</time>
      </trkpt>
      <trkpt lat="48.432308" lon="8.027222">
        <ele>254.191401</ele>
        <time>2021-12-23T15:51:57.045Z</time>
      </trkpt>
      <trkpt lat="48.432251" lon="8.027109">
        <ele>253.729292</ele>
        <time>2021-12-23T15:52:05.044Z</time>
      </trkpt>
      <trkpt lat="48.432185" lon="8.027004">
        <ele>253.258429</ele>
        <time>2021-12-23T15:52:14.042Z</time>
      </trkpt>
      <trkpt lat="48.432126" lon="8.026887">
        <ele>252.780014</ele>
        <time>2021-12-23T15:52:22.041Z</time>
      </trkpt>
      <trkpt lat="48.432057" lon="8.026787">
        <ele>252.310335</ele>
        <time>2021-12-23T15:52:30.038Z</time>
      </trkpt>
      <trkpt lat="48.432031" lon="8.026646">
        <ele>251.833911</ele>
        <time>2021-12-23T15:52:36.037Z</time>
      </trkpt>
      <trkpt lat="48.431983" lon="8.026523">
        <ele>251.369359</ele>
        <time>2021-12-23T15:52:43.034Z</time>
      </trkpt>
      <trkpt lat="48.431946" lon="8.026386">
        <ele>250.999050</ele>
        <time>2021-12-23T15:52:50.040Z</time>
      </trkpt>
      <trkpt lat="48.431912" lon="8.026255">
        <ele>250.856526</ele>
        <time>2021-12-23T15:52:56.044Z</time>
      </trkpt>
      <trkpt lat="48.431847" lon="8.026144">
        <ele>250.706522</ele>
        <time>2021-12-23T15:53:05.035Z</time>
      </trkpt>
      <trkpt lat="48.431794" lon="8.026023">
        <ele>250.559618</ele>
        <time>2021-12-23T15:53:10.042Z</time>
      </trkpt>
      <trkpt lat="48.431724" lon="8.025915">
        <ele>250.406646</ele>
        <time>2021-12-23T15:53:18.035Z</time>
      </trkpt>
      <trkpt lat="48.431672" lon="8.025781">
        <ele>250.249359</ele>
        <time>2021-12-23T15:53:26.039Z</time>
      </trkpt>
      <trkpt lat="48.431637" lon="8.025644">
        <ele>250.100614</ele>
        <time>2021-12-23T15:53:34.041Z</time>
      </trkpt>
      <trkpt lat="48.431596" lon="8.025523">
        <ele>249.962953</ele>
        <time>2021-12-23T15:53:41.034Z</time>
      </trkpt>
      <trkpt lat="48.431547" lon="8.025389">
        <ele>249.807928</ele>
        <time>2021-12-23T15:53:49.041Z</time>
      </trkpt>
      <trkpt lat="48.431491" lon="8.025265">
        <ele>249.655947</ele>
        <time>2021-12-23T15:53:56.049Z</time>
      </trkpt>
      <trkpt lat="48.431443" lon="8.025147">
        <ele>249.515707</ele>
        <time>2021-12-23T15:54:04.033Z</time>
      </trkpt>
      <trkpt lat="48.431385" lon="8.025035">
        <ele>249.371754</ele>
        <time>2021-12-23T15:54:11.043Z</time>
      </trkpt>
      <trkpt lat="48.431318" lon="8.024929">
        <ele>249.223420</ele>
        <time>2021-12-23T15:54:20.043Z</time>
      </trkpt>
      <trkpt lat="48.431251" lon="8.024834">
        <ele>249.082945</ele>
        <time>2021-12-23T15:54:28.034Z</time>
      </trkpt>
      <trkpt lat="48.431164" lon="8.024798">
        <ele>248.945175</ele>
        <time>2021-12-23T15:54:37.037Z</time>
      </trkpt>
      <trkpt lat="48.431070" lon="8.024752">
        <ele>248.794255</ele>
        <time>2021-12-23T15:54:44.037Z</time>
      </trkpt>
      <trkpt lat="48.431000" lon="8.024654">
        <ele>248.648358</ele>
        <time>2021-12-23T15:54:51.043Z</time>
      </trkpt>
      <trkpt lat="48.430931" lon="8.024540">
        <ele>248.492011</ele>
        <time>2021-12-23T15:54:59.036Z</time>
      </trkpt>
      <trkpt lat="48.430877" lon="8.024412">
        <ele>248.338322</ele>
        <time>2021-12-23T15:55:07.041Z</time>
      </trkpt>
      <trkpt lat="48.430834" lon="8.024292">
        <ele>247.923409</ele>
        <time>2021-12-23T15:55:15.039Z</time>
      </trkpt>
      <trkpt lat="48.430803" lon="8.024143">
        <ele>247.338248</ele>
        <time>2021-12-23T15:55:23.033Z</time>
      </trkpt>
      <trkpt lat="48.430743" lon="8.024011">
        <ele>246.738660</ele>
        <time>2021-12-23T15:55:33.040Z</time>
      </trkpt>
      <trkpt lat="48.430701" lon="8.023870">
        <ele>246.159481</ele>
        <time>2021-12-23T15:55:42.033Z</time>
      </trkpt>
      <trkpt lat="48.430660" lon="8.023739">
        <ele>245.616706</ele>
        <time>2021-12-23T15:55:49.041Z</time>
      </trkpt>
      <trkpt lat="48.430624" lon="8.023609">
        <ele>245.088824</ele>
        <time>2021-12-23T15:55:56.037Z</time>
      </trkpt>
      <trkpt lat="48.430566" lon="8.023503">
        <ele>244.573962</ele>
        <time>2021-12-23T15:56:03.041Z</time>
      </trkpt>
      <trkpt lat="48.430531" lon="8.023375">
        <ele>244.055165</ele>
        <time>2021-12-23T15:56:10.045Z</time>
      </trkpt>
      <trkpt lat="48.430481" lon="8.023263">
        <ele>243.549306</ele>
        <time>2021-12-23T15:56:17.041Z</time>
      </trkpt>
      <trkpt lat="48.430420" lon="8.023138">
        <ele>242.967838</ele>
        <time>2021-12-23T15:56:26.039Z</time>
      </trkpt>
      <trkpt lat="48.430383" lon="8.023011">
        <ele>242.448066</ele>
        <time>2021-12-23T15:56:33.041Z</time>
      </trkpt>
      <trkpt lat="48.430406" lon="8.022878">
        <ele>241.933014</ele>
        <time>2021-12-23T15:56:40.034Z</time>
      </trkpt>
      <trkpt lat="48.430427" lon="8.022734">
        <ele>241.380511</ele>
        <time>2021-12-23T15:56:48.042Z</time>
      </trkpt>
      <trkpt lat="48.430429" lon="8.022599">
        <ele>240.874489</ele>
        <time>2021-12-23T15:56:56.043Z</time>
      </trkpt>
      <trkpt lat="48.430409" lon="8.022452">
        <ele>240.312162</ele>
        <time>2021-12-23T15:57:04.038Z</time>
      </trkpt>
      <trkpt lat="48.430370" lon="8.022318">
        <ele>239.763830</ele>
        <time>2021-12-23T15:57:12.045Z</time>
      </trkpt>
      <trkpt lat="48.430333" lon="8.022190">
        <ele>239.240623</ele>
        <time>2021-12-23T15:57:18.045Z</time>
      </trkpt>
      <trkpt lat="48.430279" lon="8.022054">
        <ele>238.646698</ele>
        <time>2021-12-23T15:57:26.037Z</time>
      </trkpt>
      <trkpt lat="48.430239" lon="8.021930">
        <ele>238.144571</ele>
        <time>2021-12-23T15:57:32.045Z</time>
      </trkpt>
      <trkpt lat="48.430205" lon="8.021785">
        <ele>238.144571</ele>
        <time>2021-12-23T15:57:39.042Z</time>
      </trkpt>
      <trkpt lat="48.430178" lon="8.021648">
        <ele>238.144571</ele>
        <time>2021-12-23T15:57:46.039Z</time>
      </trkpt>
      <trkpt lat="48.430204" lon="8.021507">
        <ele>238.144571</ele>
        <time>2021-12-23T15:57:54.041Z</time>
      </trkpt>
      <trkpt lat="48.430219" lon="8.021371">
        <ele>238.144571</ele>
        <time>2021-12-23T15:58:01.047Z</time>
      </trkpt>
      <trkpt lat="48.430234" lon="8.021218">
        <ele>238.144571</ele>
        <time>2021-12-23T15:58:08.035Z</time>
      </trkpt>
      <trkpt lat="48.430227" lon="8.021077">
        <ele>238.144571</ele>
        <time>2021-12-23T15:58:15.043Z</time>
      </trkpt>
      <trkpt lat="48.430221" lon="8.020926">
        <ele>238.144571</ele>
        <time>2021-12-23T15:58:22.037Z</time>
      </trkpt>
      <trkpt lat="48.430193" lon="8.020791">
        <ele>238.144571</ele>
        <time>2021-12-23T15:58:29.039Z</time>
      </trkpt>
      <trkpt lat="48.430134" lon="8.020663">
        <ele>238.144571</ele>
        <time>2021-12-23T15:58:39.038Z</time>
      </trkpt>
      <trkpt lat="48.430073" lon="8.020562">
        <ele>238.144571</ele>
        <time>2021-12-23T15:58:46.041Z</time>
      </trkpt>
      <trkpt lat="48.429985" lon="8.020487">
        <ele>238.144571</ele>
        <time>2021-12-23T15:58:55.043Z</time>
      </trkpt>
      <trkpt lat="48.429944" lon="8.020342">
        <ele>238.144571</ele>
        <time>2021-12-23T15:59:05.042Z</time>
      </trkpt>
      <trkpt lat="48.429921" lon="8.020190">
        <ele>238.144571</ele>
        <time>2021-12-23T15:59:10.044Z</time>
      </trkpt>
      <trkpt lat="48.429917" lon="8.020048">
        <ele>238.144571</ele>
        <time>2021-12-23T15:59:17.037Z</time>
      </trkpt>
      <trkpt lat="48.429903" lon="8.019900">
        <ele>238.144571</ele>
        <time>2021-12-23T15:59:24.035Z</time>
      </trkpt>
      <trkpt lat="48.429864" lon="8.019757">
        <ele>238.144571</ele>
        <time>2021-12-23T15:59:31.032Z</time>
      </trkpt>
      <trkpt lat="48.429847" lon="8.019617">
        <ele>238.144571</ele>
        <time>2021-12-23T15:59:37.037Z</time>
      </trkpt>
      <trkpt lat="48.429811" lon="8.019491">
        <ele>238.144571</ele>
        <time>2021-12-23T15:59:45.039Z</time>
      </trkpt>
      <trkpt lat="48.429756" lon="8.019380">
        <ele>238.144571</ele>
        <time>2021-12-23T15:59:53.037Z</time>
      </trkpt>
      <trkpt lat="48.429724" lon="8.019247">
        <ele>238.144571</ele>
        <time>2021-12-23T16:00:00.043Z</time>
      </trkpt>
      <trkpt lat="48.429696" lon="8.019106">
        <ele>238.144571</ele>
        <time>2021-12-23T16:00:09.042Z</time>
      </trkpt>
      <trkpt lat="48.429668" lon="8.018967">
        <ele>238.144571</ele>
        <time>2021-12-23T16:00:16.042Z</time>
      </trkpt>
      <trkpt lat="48.429676" lon="8.018823">
        <ele>238.144571</ele>
        <time>2021-12-23T16:00:26.038Z</time>
      </trkpt>
      <trkpt lat="48.429693" lon="8.018722">
        <ele>238.144571</ele>
        <time>2021-12-23T16:00:35.292Z</time>
      </trkpt>
    </trkseg>
  </trk>
</gpx>